<?xml version="1.0" encoding="UTF-8" standalone="no" ?>
<gpx xmlns="http://www.topografix.com/GPX/1/1" xmlns:xsi="http://www.w3.org/2001/XMLSchema-instance" xsi:schemaLocation="http://www.topografix.com/GPX/1/1 http://www.topografix.com/GPX/1/1/gpx.xsd" version="1.1" creator="VisuGPX - https://www.visugpx.com">
  <metadata>
    <name>vichy_45km_470+</name>
  </metadata>
  <trk>
    <name><![CDATA[vichy_43km_470+_1]]></name>
    <extensions>
      <line xmlns="http://www.topografix.com/GPX/gpx_style/0/2">
        <color>0000FF</color>
        <width>4</width>
      </line>
    </extensions>
    <trkseg>
      <trkpt lat="46.14073" lon="3.40928">
        <ele>252</ele>
        <time>2025-02-05T19:48:27Z</time>
      </trkpt>
      <trkpt lat="46.14108" lon="3.40951">
        <ele>252</ele>
      </trkpt>
      <trkpt lat="46.1412" lon="3.40897">
        <ele>252.3</ele>
      </trkpt>
      <trkpt lat="46.14144" lon="3.40895">
        <ele>253.9</ele>
      </trkpt>
      <trkpt lat="46.14133" lon="3.40643">
        <ele>255</ele>
      </trkpt>
      <trkpt lat="46.14142" lon="3.40643">
        <ele>254.8</ele>
      </trkpt>
      <trkpt lat="46.1409" lon="3.39832">
        <ele>251.3</ele>
      </trkpt>
      <trkpt lat="46.14072" lon="3.39795">
        <ele>251.7</ele>
      </trkpt>
      <trkpt lat="46.14067" lon="3.39777">
        <ele>252</ele>
      </trkpt>
      <trkpt lat="46.14064" lon="3.39735">
        <ele>251.6</ele>
      </trkpt>
      <trkpt lat="46.14083" lon="3.39727">
        <ele>252</ele>
        <time>2025-02-05T19:48:32Z</time>
      </trkpt>
      <trkpt lat="46.14083" lon="3.39727">
        <ele>252</ele>
        <time>2025-02-05T19:48:40Z</time>
      </trkpt>
      <trkpt lat="46.14082" lon="3.39709">
        <ele>252</ele>
        <time>2025-02-05T19:48:43Z</time>
      </trkpt>
      <trkpt lat="46.14083" lon="3.39692">
        <ele>252</ele>
        <time>2025-02-05T19:48:45Z</time>
      </trkpt>
      <trkpt lat="46.14088" lon="3.39648">
        <ele>252</ele>
        <time>2025-02-05T19:48:53Z</time>
      </trkpt>
      <trkpt lat="46.14089" lon="3.39629">
        <ele>252.4</ele>
        <time>2025-02-05T19:48:56Z</time>
      </trkpt>
      <trkpt lat="46.1409" lon="3.39604">
        <ele>253.1</ele>
        <time>2025-02-05T19:49:00Z</time>
      </trkpt>
      <trkpt lat="46.14092" lon="3.3955">
        <ele>255.3</ele>
        <time>2025-02-05T19:49:08Z</time>
      </trkpt>
      <trkpt lat="46.14099" lon="3.39525">
        <ele>256.6</ele>
        <time>2025-02-05T19:49:13Z</time>
      </trkpt>
      <trkpt lat="46.14102" lon="3.3951">
        <ele>257.4</ele>
        <time>2025-02-05T19:49:15Z</time>
      </trkpt>
      <trkpt lat="46.14084" lon="3.39468">
        <ele>259.1</ele>
        <time>2025-02-05T19:49:23Z</time>
      </trkpt>
      <trkpt lat="46.14073" lon="3.39405">
        <ele>262.1</ele>
        <time>2025-02-05T19:49:34Z</time>
      </trkpt>
      <trkpt lat="46.14063" lon="3.39353">
        <ele>264.4</ele>
        <time>2025-02-05T19:49:43Z</time>
      </trkpt>
      <trkpt lat="46.14051" lon="3.39317">
        <ele>264.3</ele>
        <time>2025-02-05T19:49:49Z</time>
      </trkpt>
      <trkpt lat="46.14032" lon="3.39295">
        <ele>265</ele>
        <time>2025-02-05T19:49:55Z</time>
      </trkpt>
      <trkpt lat="46.1401" lon="3.39273">
        <ele>266.6</ele>
        <time>2025-02-05T19:50:01Z</time>
      </trkpt>
      <trkpt lat="46.13968" lon="3.39234">
        <ele>268.8</ele>
        <time>2025-02-05T19:50:13Z</time>
      </trkpt>
      <trkpt lat="46.13929" lon="3.39189">
        <ele>270.7</ele>
        <time>2025-02-05T19:50:24Z</time>
      </trkpt>
      <trkpt lat="46.13913" lon="3.39163">
        <ele>271.2</ele>
        <time>2025-02-05T19:50:30Z</time>
      </trkpt>
      <trkpt lat="46.13906" lon="3.39143">
        <ele>271.9</ele>
        <time>2025-02-05T19:50:33Z</time>
      </trkpt>
      <trkpt lat="46.13902" lon="3.39135">
        <ele>271.9</ele>
        <time>2025-02-05T19:50:35Z</time>
      </trkpt>
      <trkpt lat="46.1391" lon="3.39117">
        <ele>271.4</ele>
        <time>2025-02-05T19:50:39Z</time>
      </trkpt>
      <trkpt lat="46.13923" lon="3.39064">
        <ele>271.4</ele>
        <time>2025-02-05T19:50:48Z</time>
      </trkpt>
      <trkpt lat="46.13934" lon="3.39039">
        <ele>272.5</ele>
        <time>2025-02-05T19:50:52Z</time>
      </trkpt>
      <trkpt lat="46.13947" lon="3.39013">
        <ele>273.6</ele>
        <time>2025-02-05T19:50:58Z</time>
      </trkpt>
      <trkpt lat="46.14011" lon="3.38902">
        <ele>274.8</ele>
        <time>2025-02-05T19:51:21Z</time>
      </trkpt>
      <trkpt lat="46.13977" lon="3.38772">
        <ele>275.7</ele>
        <time>2025-02-05T19:51:43Z</time>
      </trkpt>
      <trkpt lat="46.13958" lon="3.38735">
        <ele>275.5</ele>
        <time>2025-02-05T19:51:51Z</time>
      </trkpt>
      <trkpt lat="46.13952" lon="3.38717">
        <ele>275.7</ele>
        <time>2025-02-05T19:51:54Z</time>
      </trkpt>
      <trkpt lat="46.13947" lon="3.38695">
        <ele>275.9</ele>
        <time>2025-02-05T19:51:58Z</time>
      </trkpt>
      <trkpt lat="46.13946" lon="3.38674">
        <ele>275.2</ele>
        <time>2025-02-05T19:52:01Z</time>
      </trkpt>
      <trkpt lat="46.13947" lon="3.38603">
        <ele>275</ele>
        <time>2025-02-05T19:52:13Z</time>
      </trkpt>
      <trkpt lat="46.13946" lon="3.38595">
        <ele>275</ele>
        <time>2025-02-05T19:52:14Z</time>
      </trkpt>
      <trkpt lat="46.13947" lon="3.38586">
        <ele>275</ele>
        <time>2025-02-05T19:52:16Z</time>
      </trkpt>
      <trkpt lat="46.13947" lon="3.38577">
        <ele>275</ele>
        <time>2025-02-05T19:52:17Z</time>
      </trkpt>
      <trkpt lat="46.13919" lon="3.38488">
        <ele>275.9</ele>
      </trkpt>
      <trkpt lat="46.13893" lon="3.38403">
        <ele>276.9</ele>
        <time>2025-02-05T19:52:48Z</time>
      </trkpt>
      <trkpt lat="46.13881" lon="3.38353">
        <ele>277.1</ele>
        <time>2025-02-05T19:52:56Z</time>
      </trkpt>
      <trkpt lat="46.13878" lon="3.38309">
        <ele>277.4</ele>
        <time>2025-02-05T19:53:04Z</time>
      </trkpt>
      <trkpt lat="46.13854" lon="3.38245">
        <ele>278</ele>
        <time>2025-02-05T19:53:15Z</time>
      </trkpt>
      <trkpt lat="46.13817" lon="3.38206">
        <ele>278.8</ele>
        <time>2025-02-05T19:53:26Z</time>
      </trkpt>
      <trkpt lat="46.13807" lon="3.38183">
        <ele>279</ele>
        <time>2025-02-05T19:53:30Z</time>
      </trkpt>
      <trkpt lat="46.13808" lon="3.38146">
        <ele>279</ele>
        <time>2025-02-05T19:53:36Z</time>
      </trkpt>
      <trkpt lat="46.13816" lon="3.38103">
        <ele>279.6</ele>
        <time>2025-02-05T19:53:44Z</time>
      </trkpt>
      <trkpt lat="46.1382" lon="3.38045">
        <ele>279.5</ele>
        <time>2025-02-05T19:53:53Z</time>
      </trkpt>
      <trkpt lat="46.13828" lon="3.38011">
        <ele>279.8</ele>
        <time>2025-02-05T19:53:59Z</time>
      </trkpt>
      <trkpt lat="46.13828" lon="3.37968">
        <ele>280.3</ele>
        <time>2025-02-05T19:54:06Z</time>
      </trkpt>
      <trkpt lat="46.13825" lon="3.37916">
        <ele>281.3</ele>
        <time>2025-02-05T19:54:14Z</time>
      </trkpt>
      <trkpt lat="46.13813" lon="3.3789">
        <ele>281.7</ele>
        <time>2025-02-05T19:54:19Z</time>
      </trkpt>
      <trkpt lat="46.1381" lon="3.37864">
        <ele>281.8</ele>
        <time>2025-02-05T19:54:24Z</time>
      </trkpt>
      <trkpt lat="46.13812" lon="3.37796">
        <ele>282.5</ele>
        <time>2025-02-05T19:54:35Z</time>
      </trkpt>
      <trkpt lat="46.138" lon="3.37746">
        <ele>283.4</ele>
        <time>2025-02-05T19:54:43Z</time>
      </trkpt>
      <trkpt lat="46.13835" lon="3.37704">
        <ele>281.9</ele>
        <time>2025-02-05T19:54:54Z</time>
      </trkpt>
      <trkpt lat="46.1385" lon="3.37667">
        <ele>282.4</ele>
        <time>2025-02-05T19:55:01Z</time>
      </trkpt>
      <trkpt lat="46.13838" lon="3.37618">
        <ele>283.8</ele>
        <time>2025-02-05T19:55:09Z</time>
      </trkpt>
      <trkpt lat="46.13836" lon="3.37588">
        <ele>284.7</ele>
        <time>2025-02-05T19:55:14Z</time>
      </trkpt>
      <trkpt lat="46.13835" lon="3.37582">
        <ele>284.9</ele>
        <time>2025-02-05T19:55:15Z</time>
      </trkpt>
      <trkpt lat="46.13708" lon="3.3755">
        <ele>291.5</ele>
        <time>2025-02-05T19:55:45Z</time>
      </trkpt>
      <trkpt lat="46.13355" lon="3.37461">
        <ele>312</ele>
        <time>2025-02-05T19:57:09Z</time>
      </trkpt>
      <trkpt lat="46.13292" lon="3.37445">
        <ele>314.5</ele>
        <time>2025-02-05T19:57:24Z</time>
      </trkpt>
      <trkpt lat="46.13058" lon="3.37387">
        <ele>324</ele>
        <time>2025-02-05T19:58:19Z</time>
      </trkpt>
      <trkpt lat="46.13045" lon="3.37384">
        <ele>324.3</ele>
        <time>2025-02-05T19:58:22Z</time>
      </trkpt>
      <trkpt lat="46.13055" lon="3.37364">
        <ele>324</ele>
        <time>2025-02-05T19:58:26Z</time>
      </trkpt>
      <trkpt lat="46.13076" lon="3.37277">
        <ele>323.3</ele>
        <time>2025-02-05T19:58:41Z</time>
      </trkpt>
      <trkpt lat="46.13077" lon="3.37226">
        <ele>323.2</ele>
        <time>2025-02-05T19:58:49Z</time>
      </trkpt>
      <trkpt lat="46.1309" lon="3.37174">
        <ele>322.8</ele>
        <time>2025-02-05T19:58:58Z</time>
      </trkpt>
      <trkpt lat="46.13097" lon="3.37035">
        <ele>319.8</ele>
        <time>2025-02-05T19:59:21Z</time>
      </trkpt>
      <trkpt lat="46.1309" lon="3.37009">
        <ele>319.1</ele>
        <time>2025-02-05T19:59:26Z</time>
      </trkpt>
      <trkpt lat="46.13087" lon="3.36976">
        <ele>318</ele>
        <time>2025-02-05T19:59:31Z</time>
      </trkpt>
      <trkpt lat="46.13102" lon="3.36913">
        <ele>318.4</ele>
        <time>2025-02-05T19:59:42Z</time>
      </trkpt>
      <trkpt lat="46.13134" lon="3.3687">
        <ele>317.9</ele>
        <time>2025-02-05T19:59:52Z</time>
      </trkpt>
      <trkpt lat="46.13132" lon="3.36854">
        <ele>318.5</ele>
        <time>2025-02-05T19:59:55Z</time>
      </trkpt>
      <trkpt lat="46.13153" lon="3.36842">
        <ele>318.2</ele>
        <time>2025-02-05T20:00:00Z</time>
      </trkpt>
      <trkpt lat="46.13204" lon="3.36811">
        <ele>317.2</ele>
        <time>2025-02-05T20:00:13Z</time>
      </trkpt>
      <trkpt lat="46.13375" lon="3.36845">
        <ele>300.7</ele>
        <time>2025-02-05T20:00:53Z</time>
      </trkpt>
      <trkpt lat="46.13515" lon="3.36878">
        <ele>297.7</ele>
        <time>2025-02-05T20:01:26Z</time>
      </trkpt>
      <trkpt lat="46.13589" lon="3.36893">
        <ele>300.9</ele>
        <time>2025-02-05T20:01:44Z</time>
      </trkpt>
      <trkpt lat="46.13624" lon="3.36903">
        <ele>301.2</ele>
        <time>2025-02-05T20:01:52Z</time>
      </trkpt>
      <trkpt lat="46.13677" lon="3.36919">
        <ele>301.3</ele>
        <time>2025-02-05T20:02:05Z</time>
      </trkpt>
      <trkpt lat="46.13713" lon="3.3693">
        <ele>303.5</ele>
        <time>2025-02-05T20:02:13Z</time>
      </trkpt>
      <trkpt lat="46.13761" lon="3.36941">
        <ele>313.3</ele>
        <time>2025-02-05T20:02:25Z</time>
      </trkpt>
      <trkpt lat="46.1381" lon="3.36948">
        <ele>319</ele>
        <time>2025-02-05T20:02:36Z</time>
      </trkpt>
      <trkpt lat="46.13883" lon="3.36967">
        <ele>319</ele>
        <time>2025-02-05T20:02:53Z</time>
      </trkpt>
      <trkpt lat="46.1392" lon="3.36975">
        <ele>318.9</ele>
        <time>2025-02-05T20:03:03Z</time>
      </trkpt>
      <trkpt lat="46.14015" lon="3.36999">
        <ele>317.4</ele>
        <time>2025-02-05T20:03:25Z</time>
      </trkpt>
      <trkpt lat="46.1405" lon="3.37005">
        <ele>317</ele>
      </trkpt>
      <trkpt lat="46.14108" lon="3.37021">
        <ele>316.8</ele>
        <time>2025-02-05T20:03:44Z</time>
      </trkpt>
      <trkpt lat="46.14155" lon="3.37028">
        <ele>313.8</ele>
        <time>2025-02-05T20:03:57Z</time>
      </trkpt>
      <trkpt lat="46.14295" lon="3.37057">
        <ele>307.9</ele>
        <time>2025-02-05T20:04:34Z</time>
      </trkpt>
      <trkpt lat="46.14333" lon="3.37061">
        <ele>308.8</ele>
      </trkpt>
      <trkpt lat="46.14342" lon="3.3708">
        <ele>307.8</ele>
        <time>2025-02-05T20:04:42Z</time>
      </trkpt>
      <trkpt lat="46.14345" lon="3.37081">
        <ele>307.7</ele>
        <time>2025-02-05T20:04:43Z</time>
      </trkpt>
      <trkpt lat="46.14349" lon="3.37096">
        <ele>307</ele>
        <time>2025-02-05T20:04:45Z</time>
      </trkpt>
      <trkpt lat="46.14358" lon="3.37124">
        <ele>306.4</ele>
        <time>2025-02-05T20:04:50Z</time>
      </trkpt>
      <trkpt lat="46.14368" lon="3.37185">
        <ele>303.3</ele>
        <time>2025-02-05T20:05:01Z</time>
      </trkpt>
      <trkpt lat="46.14373" lon="3.37283">
        <ele>297.3</ele>
        <time>2025-02-05T20:05:17Z</time>
      </trkpt>
      <trkpt lat="46.14378" lon="3.37319">
        <ele>295.3</ele>
        <time>2025-02-05T20:05:22Z</time>
      </trkpt>
      <trkpt lat="46.14383" lon="3.37342">
        <ele>294.1</ele>
        <time>2025-02-05T20:05:26Z</time>
      </trkpt>
      <trkpt lat="46.14386" lon="3.37372">
        <ele>293.2</ele>
        <time>2025-02-05T20:05:31Z</time>
      </trkpt>
      <trkpt lat="46.14402" lon="3.37392">
        <ele>292.5</ele>
        <time>2025-02-05T20:05:36Z</time>
      </trkpt>
      <trkpt lat="46.14444" lon="3.37424">
        <ele>292</ele>
        <time>2025-02-05T20:05:47Z</time>
      </trkpt>
      <trkpt lat="46.14459" lon="3.37439">
        <ele>292</ele>
        <time>2025-02-05T20:05:52Z</time>
      </trkpt>
      <trkpt lat="46.14503" lon="3.37458">
        <ele>291.4</ele>
        <time>2025-02-05T20:06:02Z</time>
      </trkpt>
      <trkpt lat="46.14554" lon="3.37469">
        <ele>290.1</ele>
        <time>2025-02-05T20:06:14Z</time>
      </trkpt>
      <trkpt lat="46.14565" lon="3.37475">
        <ele>289.6</ele>
        <time>2025-02-05T20:06:17Z</time>
      </trkpt>
      <trkpt lat="46.14577" lon="3.37478">
        <ele>289</ele>
        <time>2025-02-05T20:06:20Z</time>
      </trkpt>
      <trkpt lat="46.14591" lon="3.37485">
        <ele>288.4</ele>
        <time>2025-02-05T20:06:23Z</time>
      </trkpt>
      <trkpt lat="46.14617" lon="3.37488">
        <ele>287.8</ele>
        <time>2025-02-05T20:06:29Z</time>
      </trkpt>
      <trkpt lat="46.14654" lon="3.37485">
        <ele>286.5</ele>
        <time>2025-02-05T20:06:38Z</time>
      </trkpt>
      <trkpt lat="46.14678" lon="3.37471">
        <ele>285.5</ele>
        <time>2025-02-05T20:06:44Z</time>
      </trkpt>
      <trkpt lat="46.14694" lon="3.37455">
        <ele>284.4</ele>
        <time>2025-02-05T20:06:49Z</time>
      </trkpt>
      <trkpt lat="46.14697" lon="3.37456">
        <ele>284.3</ele>
        <time>2025-02-05T20:06:50Z</time>
      </trkpt>
      <trkpt lat="46.14716" lon="3.37459">
        <ele>283.4</ele>
        <time>2025-02-05T20:06:54Z</time>
      </trkpt>
      <trkpt lat="46.1474" lon="3.37474">
        <ele>283.4</ele>
        <time>2025-02-05T20:07:00Z</time>
      </trkpt>
      <trkpt lat="46.14741" lon="3.37467">
        <ele>282.8</ele>
        <time>2025-02-05T20:07:01Z</time>
      </trkpt>
      <trkpt lat="46.14737" lon="3.3743">
        <ele>280.4</ele>
        <time>2025-02-05T20:07:07Z</time>
      </trkpt>
      <trkpt lat="46.14739" lon="3.37421">
        <ele>279.9</ele>
        <time>2025-02-05T20:07:09Z</time>
      </trkpt>
      <trkpt lat="46.14753" lon="3.37406">
        <ele>279.5</ele>
        <time>2025-02-05T20:07:13Z</time>
      </trkpt>
      <trkpt lat="46.14753" lon="3.37406">
        <ele>279.5</ele>
        <time>2025-02-05T20:07:13Z</time>
      </trkpt>
      <trkpt lat="46.14756" lon="3.37399">
        <ele>280</ele>
        <time>2025-02-05T20:07:14Z</time>
      </trkpt>
      <trkpt lat="46.14762" lon="3.37377">
        <ele>281.4</ele>
      </trkpt>
      <trkpt lat="46.14743" lon="3.37311">
        <ele>283.8</ele>
      </trkpt>
      <trkpt lat="46.14754" lon="3.37277">
        <ele>285</ele>
      </trkpt>
      <trkpt lat="46.14757" lon="3.37223">
        <ele>287.2</ele>
      </trkpt>
      <trkpt lat="46.14772" lon="3.37183">
        <ele>289.6</ele>
      </trkpt>
      <trkpt lat="46.14761" lon="3.37135">
        <ele>291.5</ele>
      </trkpt>
      <trkpt lat="46.14768" lon="3.37081">
        <ele>294.1</ele>
      </trkpt>
      <trkpt lat="46.14765" lon="3.37028">
        <ele>296.4</ele>
      </trkpt>
      <trkpt lat="46.14732" lon="3.36961">
        <ele>300.4</ele>
      </trkpt>
      <trkpt lat="46.14718" lon="3.36948">
        <ele>300.9</ele>
      </trkpt>
      <trkpt lat="46.14696" lon="3.36941">
        <ele>301.2</ele>
      </trkpt>
      <trkpt lat="46.14686" lon="3.36919">
        <ele>302.5</ele>
      </trkpt>
      <trkpt lat="46.14674" lon="3.36877">
        <ele>304.9</ele>
      </trkpt>
      <trkpt lat="46.14655" lon="3.3682">
        <ele>308</ele>
      </trkpt>
      <trkpt lat="46.14621" lon="3.36706">
        <ele>312.3</ele>
      </trkpt>
      <trkpt lat="46.14629" lon="3.36654">
        <ele>314.5</ele>
      </trkpt>
      <trkpt lat="46.14633" lon="3.36634">
        <ele>315.2</ele>
      </trkpt>
      <trkpt lat="46.1465" lon="3.36601">
        <ele>315.6</ele>
      </trkpt>
      <trkpt lat="46.14676" lon="3.36596">
        <ele>314.5</ele>
      </trkpt>
      <trkpt lat="46.14719" lon="3.36563">
        <ele>312.9</ele>
      </trkpt>
      <trkpt lat="46.14754" lon="3.36564">
        <ele>310.9</ele>
      </trkpt>
      <trkpt lat="46.14777" lon="3.36549">
        <ele>311</ele>
      </trkpt>
      <trkpt lat="46.14803" lon="3.36551">
        <ele>310.2</ele>
      </trkpt>
      <trkpt lat="46.14814" lon="3.36541">
        <ele>309.9</ele>
      </trkpt>
      <trkpt lat="46.14831" lon="3.36516">
        <ele>309.6</ele>
      </trkpt>
      <trkpt lat="46.14863" lon="3.36513">
        <ele>309.6</ele>
      </trkpt>
      <trkpt lat="46.14914" lon="3.36511">
        <ele>312.5</ele>
      </trkpt>
      <trkpt lat="46.14955" lon="3.36424">
        <ele>315.4</ele>
      </trkpt>
      <trkpt lat="46.14981" lon="3.36378">
        <ele>316</ele>
      </trkpt>
      <trkpt lat="46.15022" lon="3.36392">
        <ele>316</ele>
      </trkpt>
      <trkpt lat="46.15077" lon="3.36387">
        <ele>317</ele>
      </trkpt>
      <trkpt lat="46.15105" lon="3.36375">
        <ele>317.4</ele>
      </trkpt>
      <trkpt lat="46.15213" lon="3.36398">
        <ele>316.3</ele>
      </trkpt>
      <trkpt lat="46.1526" lon="3.36449">
        <ele>314.5</ele>
      </trkpt>
      <trkpt lat="46.15329" lon="3.36521">
        <ele>309.6</ele>
      </trkpt>
      <trkpt lat="46.15335" lon="3.3654">
        <ele>308.5</ele>
        <time>2025-02-05T20:10:51Z</time>
      </trkpt>
      <trkpt lat="46.15391" lon="3.36538">
        <ele>305.4</ele>
        <time>2025-02-05T20:11:04Z</time>
      </trkpt>
      <trkpt lat="46.15398" lon="3.36535">
        <ele>304.8</ele>
        <time>2025-02-05T20:11:06Z</time>
      </trkpt>
      <trkpt lat="46.15403" lon="3.3653">
        <ele>304.4</ele>
        <time>2025-02-05T20:11:07Z</time>
      </trkpt>
      <trkpt lat="46.15436" lon="3.36476">
        <ele>300.1</ele>
        <time>2025-02-05T20:11:19Z</time>
      </trkpt>
      <trkpt lat="46.15443" lon="3.36462">
        <ele>299.1</ele>
        <time>2025-02-05T20:11:22Z</time>
      </trkpt>
      <trkpt lat="46.15448" lon="3.36446">
        <ele>298.8</ele>
        <time>2025-02-05T20:11:25Z</time>
      </trkpt>
      <trkpt lat="46.1545" lon="3.36426">
        <ele>297.9</ele>
        <time>2025-02-05T20:11:28Z</time>
      </trkpt>
      <trkpt lat="46.15454" lon="3.36338">
        <ele>295.1</ele>
        <time>2025-02-05T20:11:42Z</time>
      </trkpt>
      <trkpt lat="46.15457" lon="3.36324">
        <ele>294.8</ele>
        <time>2025-02-05T20:11:45Z</time>
      </trkpt>
      <trkpt lat="46.15481" lon="3.36269">
        <ele>292.7</ele>
        <time>2025-02-05T20:11:55Z</time>
      </trkpt>
      <trkpt lat="46.15494" lon="3.36237">
        <ele>290</ele>
      </trkpt>
      <trkpt lat="46.1551" lon="3.36268">
        <ele>289.2</ele>
      </trkpt>
      <trkpt lat="46.1551" lon="3.36368">
        <ele>289.6</ele>
      </trkpt>
      <trkpt lat="46.15545" lon="3.36478">
        <ele>288.3</ele>
      </trkpt>
      <trkpt lat="46.15605" lon="3.36566">
        <ele>285.2</ele>
      </trkpt>
      <trkpt lat="46.15663" lon="3.36617">
        <ele>279</ele>
      </trkpt>
      <trkpt lat="46.1568" lon="3.36686">
        <ele>277.4</ele>
      </trkpt>
      <trkpt lat="46.1575" lon="3.36802">
        <ele>277.1</ele>
      </trkpt>
      <trkpt lat="46.15769" lon="3.36896">
        <ele>276</ele>
      </trkpt>
      <trkpt lat="46.15778" lon="3.37012">
        <ele>277.4</ele>
      </trkpt>
      <trkpt lat="46.15824" lon="3.37171">
        <ele>274.5</ele>
      </trkpt>
      <trkpt lat="46.15888" lon="3.37328">
        <ele>272.9</ele>
      </trkpt>
      <trkpt lat="46.15947" lon="3.37456">
        <ele>274.7</ele>
      </trkpt>
      <trkpt lat="46.16035" lon="3.37671">
        <ele>274.7</ele>
      </trkpt>
      <trkpt lat="46.16094" lon="3.37703">
        <ele>272.7</ele>
      </trkpt>
      <trkpt lat="46.1612" lon="3.3774">
        <ele>272.6</ele>
      </trkpt>
      <trkpt lat="46.16117" lon="3.3763">
        <ele>268.7</ele>
      </trkpt>
      <trkpt lat="46.1616" lon="3.37478">
        <ele>266.4</ele>
      </trkpt>
      <trkpt lat="46.16291" lon="3.37182">
        <ele>278.5</ele>
      </trkpt>
      <trkpt lat="46.16363" lon="3.37023">
        <ele>288.5</ele>
      </trkpt>
      <trkpt lat="46.16469" lon="3.36911">
        <ele>297.8</ele>
      </trkpt>
      <trkpt lat="46.1654" lon="3.36864">
        <ele>304.1</ele>
      </trkpt>
      <trkpt lat="46.16622" lon="3.36843">
        <ele>309.6</ele>
      </trkpt>
      <trkpt lat="46.16634" lon="3.36852">
        <ele>310.7</ele>
      </trkpt>
      <trkpt lat="46.16646" lon="3.36893">
        <ele>313.2</ele>
      </trkpt>
      <trkpt lat="46.167" lon="3.36858">
        <ele>315.2</ele>
      </trkpt>
      <trkpt lat="46.16765" lon="3.36939">
        <ele>311.9</ele>
        <time>2025-02-05T17:55:51Z</time>
      </trkpt>
      <trkpt lat="46.16931" lon="3.37141">
        <ele>302.9</ele>
        <time>2025-02-05T17:56:42Z</time>
      </trkpt>
      <trkpt lat="46.16943" lon="3.37243">
        <ele>298.3</ele>
        <time>2025-02-05T17:56:59Z</time>
      </trkpt>
      <trkpt lat="46.16997" lon="3.37312">
        <ele>297.2</ele>
        <time>2025-02-05T17:57:15Z</time>
      </trkpt>
      <trkpt lat="46.17004" lon="3.3735">
        <ele>298.1</ele>
        <time>2025-02-05T17:57:22Z</time>
      </trkpt>
      <trkpt lat="46.17016" lon="3.37367">
        <ele>297.6</ele>
        <time>2025-02-05T17:57:26Z</time>
      </trkpt>
      <trkpt lat="46.17007" lon="3.37391">
        <ele>295.9</ele>
        <time>2025-02-05T17:57:30Z</time>
      </trkpt>
      <trkpt lat="46.17005" lon="3.37417">
        <ele>294.8</ele>
        <time>2025-02-05T17:57:34Z</time>
      </trkpt>
      <trkpt lat="46.16997" lon="3.37438">
        <ele>293.3</ele>
        <time>2025-02-05T17:57:38Z</time>
      </trkpt>
      <trkpt lat="46.1699" lon="3.37455">
        <ele>292.3</ele>
        <time>2025-02-05T17:57:41Z</time>
      </trkpt>
      <trkpt lat="46.16991" lon="3.37496">
        <ele>290.2</ele>
        <time>2025-02-05T17:57:48Z</time>
      </trkpt>
      <trkpt lat="46.17009" lon="3.37519">
        <ele>289.3</ele>
        <time>2025-02-05T17:57:53Z</time>
      </trkpt>
      <trkpt lat="46.17013" lon="3.3754">
        <ele>288.6</ele>
        <time>2025-02-05T17:57:57Z</time>
      </trkpt>
      <trkpt lat="46.17005" lon="3.37556">
        <ele>288</ele>
        <time>2025-02-05T17:58:00Z</time>
      </trkpt>
      <trkpt lat="46.16993" lon="3.37567">
        <ele>287.6</ele>
        <time>2025-02-05T17:58:03Z</time>
      </trkpt>
      <trkpt lat="46.16979" lon="3.37568">
        <ele>287.6</ele>
        <time>2025-02-05T17:58:07Z</time>
      </trkpt>
      <trkpt lat="46.16945" lon="3.37588">
        <ele>286.8</ele>
        <time>2025-02-05T17:58:15Z</time>
      </trkpt>
      <trkpt lat="46.16923" lon="3.37597">
        <ele>286.1</ele>
        <time>2025-02-05T17:58:21Z</time>
      </trkpt>
      <trkpt lat="46.16903" lon="3.37606">
        <ele>285.6</ele>
        <time>2025-02-05T17:58:25Z</time>
      </trkpt>
      <trkpt lat="46.16897" lon="3.37596">
        <ele>285.7</ele>
        <time>2025-02-05T17:58:28Z</time>
      </trkpt>
      <trkpt lat="46.1688" lon="3.37586">
        <ele>285.9</ele>
        <time>2025-02-05T17:58:32Z</time>
      </trkpt>
      <trkpt lat="46.1686" lon="3.37578">
        <ele>286</ele>
        <time>2025-02-05T17:58:37Z</time>
      </trkpt>
      <trkpt lat="46.16852" lon="3.37586">
        <ele>286.3</ele>
        <time>2025-02-05T17:58:39Z</time>
      </trkpt>
      <trkpt lat="46.16841" lon="3.37605">
        <ele>286.5</ele>
        <time>2025-02-05T17:58:43Z</time>
      </trkpt>
      <trkpt lat="46.16824" lon="3.3762">
        <ele>287.3</ele>
        <time>2025-02-05T17:58:48Z</time>
      </trkpt>
      <trkpt lat="46.16815" lon="3.37633">
        <ele>287.7</ele>
        <time>2025-02-05T17:58:51Z</time>
      </trkpt>
      <trkpt lat="46.16795" lon="3.3769">
        <ele>288.4</ele>
        <time>2025-02-05T17:59:01Z</time>
      </trkpt>
      <trkpt lat="46.168" lon="3.37763">
        <ele>286.8</ele>
        <time>2025-02-05T17:59:13Z</time>
      </trkpt>
      <trkpt lat="46.16807" lon="3.37781">
        <ele>285.9</ele>
        <time>2025-02-05T17:59:16Z</time>
      </trkpt>
      <trkpt lat="46.1682" lon="3.37821">
        <ele>284.7</ele>
        <time>2025-02-05T17:59:23Z</time>
      </trkpt>
      <trkpt lat="46.16831" lon="3.3785">
        <ele>283.5</ele>
        <time>2025-02-05T17:59:29Z</time>
      </trkpt>
      <trkpt lat="46.16848" lon="3.37878">
        <ele>282.5</ele>
        <time>2025-02-05T17:59:35Z</time>
      </trkpt>
      <trkpt lat="46.16863" lon="3.37897">
        <ele>281.6</ele>
        <time>2025-02-05T17:59:39Z</time>
      </trkpt>
      <trkpt lat="46.16873" lon="3.37923">
        <ele>280.5</ele>
        <time>2025-02-05T17:59:44Z</time>
      </trkpt>
      <trkpt lat="46.16888" lon="3.37986">
        <ele>278.6</ele>
        <time>2025-02-05T17:59:55Z</time>
      </trkpt>
      <trkpt lat="46.16907" lon="3.37967">
        <ele>278.3</ele>
        <time>2025-02-05T18:00:00Z</time>
      </trkpt>
      <trkpt lat="46.16932" lon="3.37946">
        <ele>277.4</ele>
        <time>2025-02-05T18:00:07Z</time>
      </trkpt>
      <trkpt lat="46.16948" lon="3.37934">
        <ele>277</ele>
        <time>2025-02-05T18:00:11Z</time>
      </trkpt>
      <trkpt lat="46.17041" lon="3.37886">
        <ele>279</ele>
        <time>2025-02-05T18:00:34Z</time>
      </trkpt>
      <trkpt lat="46.17076" lon="3.37861">
        <ele>280</ele>
        <time>2025-02-05T18:00:44Z</time>
      </trkpt>
      <trkpt lat="46.17085" lon="3.37854">
        <ele>280.3</ele>
        <time>2025-02-05T18:00:46Z</time>
      </trkpt>
      <trkpt lat="46.17092" lon="3.37854">
        <ele>280.5</ele>
        <time>2025-02-05T18:00:48Z</time>
      </trkpt>
      <trkpt lat="46.17151" lon="3.37927">
        <ele>280.3</ele>
        <time>2025-02-05T18:01:06Z</time>
      </trkpt>
      <trkpt lat="46.17157" lon="3.37932">
        <ele>280.3</ele>
        <time>2025-02-05T18:01:07Z</time>
      </trkpt>
      <trkpt lat="46.17196" lon="3.37951">
        <ele>279.8</ele>
        <time>2025-02-05T18:01:17Z</time>
      </trkpt>
      <trkpt lat="46.17212" lon="3.37966">
        <ele>279.2</ele>
        <time>2025-02-05T18:01:21Z</time>
      </trkpt>
      <trkpt lat="46.17239" lon="3.38001">
        <ele>278</ele>
        <time>2025-02-05T18:01:30Z</time>
      </trkpt>
      <trkpt lat="46.17252" lon="3.38014">
        <ele>277.5</ele>
        <time>2025-02-05T18:01:34Z</time>
      </trkpt>
      <trkpt lat="46.17274" lon="3.38031">
        <ele>277</ele>
        <time>2025-02-05T18:01:39Z</time>
      </trkpt>
      <trkpt lat="46.17307" lon="3.3804">
        <ele>277.1</ele>
        <time>2025-02-05T18:01:47Z</time>
      </trkpt>
      <trkpt lat="46.17325" lon="3.38049">
        <ele>277.7</ele>
        <time>2025-02-05T18:01:52Z</time>
      </trkpt>
      <trkpt lat="46.17341" lon="3.38063">
        <ele>277.7</ele>
        <time>2025-02-05T18:01:56Z</time>
      </trkpt>
      <trkpt lat="46.17432" lon="3.37901">
        <ele>281.6</ele>
        <time>2025-02-05T18:02:30Z</time>
      </trkpt>
      <trkpt lat="46.17472" lon="3.37793">
        <ele>285.4</ele>
        <time>2025-02-05T18:02:50Z</time>
      </trkpt>
      <trkpt lat="46.17534" lon="3.37608">
        <ele>297.8</ele>
        <time>2025-02-05T18:03:23Z</time>
      </trkpt>
      <trkpt lat="46.17562" lon="3.37506">
        <ele>304.2</ele>
        <time>2025-02-05T18:03:41Z</time>
      </trkpt>
      <trkpt lat="46.17565" lon="3.37488">
        <ele>305</ele>
        <time>2025-02-05T18:03:44Z</time>
      </trkpt>
      <trkpt lat="46.17701" lon="3.37404">
        <ele>309.8</ele>
        <time>2025-02-05T18:04:18Z</time>
      </trkpt>
      <trkpt lat="46.17726" lon="3.37397">
        <ele>308.8</ele>
        <time>2025-02-05T18:04:24Z</time>
      </trkpt>
      <trkpt lat="46.17806" lon="3.37383">
        <ele>302.7</ele>
        <time>2025-02-05T18:04:43Z</time>
      </trkpt>
      <trkpt lat="46.17832" lon="3.37371">
        <ele>299.2</ele>
        <time>2025-02-05T18:04:49Z</time>
      </trkpt>
      <trkpt lat="46.17854" lon="3.37348">
        <ele>295.1</ele>
        <time>2025-02-05T18:04:56Z</time>
      </trkpt>
      <trkpt lat="46.17868" lon="3.37322">
        <ele>292</ele>
        <time>2025-02-05T18:05:01Z</time>
      </trkpt>
      <trkpt lat="46.17875" lon="3.37291">
        <ele>289.7</ele>
        <time>2025-02-05T18:05:06Z</time>
      </trkpt>
      <trkpt lat="46.17883" lon="3.37206">
        <ele>285.2</ele>
        <time>2025-02-05T18:05:20Z</time>
      </trkpt>
      <trkpt lat="46.17891" lon="3.37198">
        <ele>284</ele>
        <time>2025-02-05T18:05:22Z</time>
      </trkpt>
      <trkpt lat="46.1791" lon="3.37189">
        <ele>281.5</ele>
        <time>2025-02-05T18:05:27Z</time>
      </trkpt>
      <trkpt lat="46.17917" lon="3.37184">
        <ele>280.6</ele>
        <time>2025-02-05T18:05:29Z</time>
      </trkpt>
      <trkpt lat="46.17922" lon="3.37177">
        <ele>279.9</ele>
        <time>2025-02-05T18:05:30Z</time>
      </trkpt>
      <trkpt lat="46.17923" lon="3.37172">
        <ele>279.7</ele>
        <time>2025-02-05T18:05:31Z</time>
      </trkpt>
      <trkpt lat="46.17921" lon="3.37158">
        <ele>279.7</ele>
        <time>2025-02-05T18:05:34Z</time>
      </trkpt>
      <trkpt lat="46.1788" lon="3.37053">
        <ele>279.7</ele>
        <time>2025-02-05T18:05:53Z</time>
      </trkpt>
      <trkpt lat="46.17876" lon="3.3704">
        <ele>280</ele>
        <time>2025-02-05T18:05:55Z</time>
      </trkpt>
      <trkpt lat="46.17874" lon="3.37018">
        <ele>280</ele>
        <time>2025-02-05T18:05:59Z</time>
      </trkpt>
      <trkpt lat="46.17875" lon="3.37011">
        <ele>280</ele>
        <time>2025-02-05T18:06:00Z</time>
      </trkpt>
      <trkpt lat="46.17879" lon="3.37003">
        <ele>280</ele>
        <time>2025-02-05T18:06:02Z</time>
      </trkpt>
      <trkpt lat="46.18037" lon="3.36961">
        <ele>289.4</ele>
        <time>2025-02-05T18:06:39Z</time>
      </trkpt>
      <trkpt lat="46.18054" lon="3.36954">
        <ele>289.7</ele>
        <time>2025-02-05T18:06:43Z</time>
      </trkpt>
      <trkpt lat="46.18066" lon="3.36945">
        <ele>290</ele>
        <time>2025-02-05T18:06:47Z</time>
      </trkpt>
      <trkpt lat="46.18079" lon="3.36932">
        <ele>290.8</ele>
        <time>2025-02-05T18:06:50Z</time>
      </trkpt>
      <trkpt lat="46.18112" lon="3.3689">
        <ele>290.1</ele>
        <time>2025-02-05T18:07:00Z</time>
      </trkpt>
      <trkpt lat="46.18117" lon="3.36889">
        <ele>290.4</ele>
        <time>2025-02-05T18:07:02Z</time>
      </trkpt>
      <trkpt lat="46.18161" lon="3.3709">
        <ele>284.2</ele>
        <time>2025-02-05T18:07:36Z</time>
      </trkpt>
      <trkpt lat="46.18169" lon="3.37085">
        <ele>284</ele>
        <time>2025-02-05T18:07:38Z</time>
      </trkpt>
      <trkpt lat="46.1818" lon="3.37072">
        <ele>284.4</ele>
        <time>2025-02-05T18:07:41Z</time>
      </trkpt>
      <trkpt lat="46.18194" lon="3.37063">
        <ele>284.7</ele>
        <time>2025-02-05T18:07:45Z</time>
      </trkpt>
      <trkpt lat="46.18207" lon="3.3706">
        <ele>284.8</ele>
        <time>2025-02-05T18:07:48Z</time>
      </trkpt>
      <trkpt lat="46.18226" lon="3.37059">
        <ele>285</ele>
        <time>2025-02-05T18:07:52Z</time>
      </trkpt>
      <trkpt lat="46.18234" lon="3.37055">
        <ele>285.4</ele>
        <time>2025-02-05T18:07:54Z</time>
      </trkpt>
      <trkpt lat="46.18242" lon="3.37049">
        <ele>285.9</ele>
        <time>2025-02-05T18:07:56Z</time>
      </trkpt>
      <trkpt lat="46.18257" lon="3.37027">
        <ele>287</ele>
        <time>2025-02-05T18:08:01Z</time>
      </trkpt>
      <trkpt lat="46.18268" lon="3.37017">
        <ele>287.4</ele>
        <time>2025-02-05T18:08:04Z</time>
      </trkpt>
      <trkpt lat="46.18278" lon="3.37012">
        <ele>287.6</ele>
        <time>2025-02-05T18:08:07Z</time>
      </trkpt>
      <trkpt lat="46.18303" lon="3.37003">
        <ele>287</ele>
        <time>2025-02-05T18:08:13Z</time>
      </trkpt>
      <trkpt lat="46.18317" lon="3.37">
        <ele>287</ele>
        <time>2025-02-05T18:08:16Z</time>
      </trkpt>
      <trkpt lat="46.18375" lon="3.37003">
        <ele>284.5</ele>
        <time>2025-02-05T18:08:30Z</time>
      </trkpt>
      <trkpt lat="46.18401" lon="3.36999">
        <ele>284.5</ele>
        <time>2025-02-05T18:08:36Z</time>
      </trkpt>
      <trkpt lat="46.18408" lon="3.36992">
        <ele>285</ele>
        <time>2025-02-05T18:08:38Z</time>
      </trkpt>
      <trkpt lat="46.18415" lon="3.36978">
        <ele>285.7</ele>
        <time>2025-02-05T18:08:41Z</time>
      </trkpt>
      <trkpt lat="46.18424" lon="3.36949">
        <ele>286.3</ele>
        <time>2025-02-05T18:08:46Z</time>
      </trkpt>
      <trkpt lat="46.18437" lon="3.36925">
        <ele>287.2</ele>
        <time>2025-02-05T18:08:51Z</time>
      </trkpt>
      <trkpt lat="46.18483" lon="3.36854">
        <ele>293.1</ele>
        <time>2025-02-05T18:09:06Z</time>
      </trkpt>
      <trkpt lat="46.1849" lon="3.36838">
        <ele>295.2</ele>
        <time>2025-02-05T18:09:09Z</time>
      </trkpt>
      <trkpt lat="46.18501" lon="3.36777">
        <ele>301.3</ele>
        <time>2025-02-05T18:09:20Z</time>
      </trkpt>
      <trkpt lat="46.18507" lon="3.36759">
        <ele>302.8</ele>
        <time>2025-02-05T18:09:23Z</time>
      </trkpt>
      <trkpt lat="46.18516" lon="3.36746">
        <ele>304.8</ele>
        <time>2025-02-05T18:09:26Z</time>
      </trkpt>
      <trkpt lat="46.18566" lon="3.36722">
        <ele>313.8</ele>
        <time>2025-02-05T18:09:38Z</time>
      </trkpt>
      <trkpt lat="46.18589" lon="3.36714">
        <ele>316.1</ele>
        <time>2025-02-05T18:09:44Z</time>
      </trkpt>
      <trkpt lat="46.186" lon="3.36718">
        <ele>317.7</ele>
        <time>2025-02-05T18:09:46Z</time>
      </trkpt>
      <trkpt lat="46.18606" lon="3.36725">
        <ele>318.9</ele>
        <time>2025-02-05T18:09:48Z</time>
      </trkpt>
      <trkpt lat="46.18617" lon="3.36745">
        <ele>321.1</ele>
        <time>2025-02-05T18:09:52Z</time>
      </trkpt>
      <trkpt lat="46.1863" lon="3.36747">
        <ele>322.3</ele>
        <time>2025-02-05T18:09:55Z</time>
      </trkpt>
      <trkpt lat="46.18662" lon="3.36752">
        <ele>323.9</ele>
        <time>2025-02-05T18:10:03Z</time>
      </trkpt>
      <trkpt lat="46.18674" lon="3.36751">
        <ele>324.8</ele>
        <time>2025-02-05T18:10:06Z</time>
      </trkpt>
      <trkpt lat="46.18685" lon="3.36746">
        <ele>326</ele>
        <time>2025-02-05T18:10:08Z</time>
      </trkpt>
      <trkpt lat="46.18719" lon="3.36708">
        <ele>329.2</ele>
        <time>2025-02-05T18:10:18Z</time>
      </trkpt>
      <trkpt lat="46.18729" lon="3.36696">
        <ele>329.9</ele>
        <time>2025-02-05T18:10:21Z</time>
      </trkpt>
      <trkpt lat="46.18728" lon="3.36673">
        <ele>330</ele>
        <time>2025-02-05T18:10:25Z</time>
      </trkpt>
      <trkpt lat="46.18765" lon="3.36355">
        <ele>331.5</ele>
        <time>2025-02-05T18:11:17Z</time>
      </trkpt>
      <trkpt lat="46.18818" lon="3.36399">
        <ele>332</ele>
        <time>2025-02-05T18:11:31Z</time>
      </trkpt>
      <trkpt lat="46.18847" lon="3.36427">
        <ele>332</ele>
        <time>2025-02-05T18:11:40Z</time>
      </trkpt>
      <trkpt lat="46.18872" lon="3.36459">
        <ele>332</ele>
        <time>2025-02-05T18:11:47Z</time>
      </trkpt>
      <trkpt lat="46.18903" lon="3.36502">
        <ele>331</ele>
        <time>2025-02-05T18:11:57Z</time>
      </trkpt>
      <trkpt lat="46.18927" lon="3.36541">
        <ele>330.7</ele>
        <time>2025-02-05T18:12:06Z</time>
      </trkpt>
      <trkpt lat="46.18942" lon="3.36559">
        <ele>330.8</ele>
        <time>2025-02-05T18:12:10Z</time>
      </trkpt>
      <trkpt lat="46.18956" lon="3.36571">
        <ele>330.7</ele>
        <time>2025-02-05T18:12:14Z</time>
      </trkpt>
      <trkpt lat="46.18978" lon="3.36584">
        <ele>331.2</ele>
        <time>2025-02-05T18:12:20Z</time>
      </trkpt>
      <trkpt lat="46.18989" lon="3.36588">
        <ele>331.3</ele>
        <time>2025-02-05T18:12:22Z</time>
      </trkpt>
      <trkpt lat="46.1902" lon="3.36592">
        <ele>331.6</ele>
        <time>2025-02-05T18:12:30Z</time>
      </trkpt>
      <trkpt lat="46.191" lon="3.36607">
        <ele>332</ele>
        <time>2025-02-05T18:12:49Z</time>
      </trkpt>
      <trkpt lat="46.19131" lon="3.36615">
        <ele>332</ele>
        <time>2025-02-05T18:12:56Z</time>
      </trkpt>
      <trkpt lat="46.19179" lon="3.36623">
        <ele>332.6</ele>
        <time>2025-02-05T18:13:07Z</time>
      </trkpt>
      <trkpt lat="46.1919" lon="3.36625">
        <ele>332.5</ele>
        <time>2025-02-05T18:13:10Z</time>
      </trkpt>
      <trkpt lat="46.19209" lon="3.36624">
        <ele>332.5</ele>
        <time>2025-02-05T18:13:14Z</time>
      </trkpt>
      <trkpt lat="46.19219" lon="3.36627">
        <ele>332.4</ele>
        <time>2025-02-05T18:13:17Z</time>
      </trkpt>
      <trkpt lat="46.1924" lon="3.36647">
        <ele>332</ele>
        <time>2025-02-05T18:13:22Z</time>
      </trkpt>
      <trkpt lat="46.19276" lon="3.36705">
        <ele>331</ele>
        <time>2025-02-05T18:13:35Z</time>
      </trkpt>
      <trkpt lat="46.19287" lon="3.36727">
        <ele>330.6</ele>
        <time>2025-02-05T18:13:39Z</time>
      </trkpt>
      <trkpt lat="46.19307" lon="3.36774">
        <ele>329.1</ele>
        <time>2025-02-05T18:13:48Z</time>
      </trkpt>
      <trkpt lat="46.19366" lon="3.36858">
        <ele>326.1</ele>
        <time>2025-02-05T18:14:08Z</time>
      </trkpt>
      <trkpt lat="46.19378" lon="3.36882">
        <ele>325.5</ele>
        <time>2025-02-05T18:14:12Z</time>
      </trkpt>
      <trkpt lat="46.19386" lon="3.36906">
        <ele>324.5</ele>
        <time>2025-02-05T18:14:17Z</time>
      </trkpt>
      <trkpt lat="46.19426" lon="3.37071">
        <ele>319.4</ele>
        <time>2025-02-05T18:14:45Z</time>
      </trkpt>
      <trkpt lat="46.19447" lon="3.37056">
        <ele>319.9</ele>
        <time>2025-02-05T18:14:51Z</time>
      </trkpt>
      <trkpt lat="46.19469" lon="3.37035">
        <ele>319.1</ele>
        <time>2025-02-05T18:14:57Z</time>
      </trkpt>
      <trkpt lat="46.1958" lon="3.36916">
        <ele>323</ele>
        <time>2025-02-05T18:15:29Z</time>
      </trkpt>
      <trkpt lat="46.1978" lon="3.36699">
        <ele>327</ele>
        <time>2025-02-05T18:16:27Z</time>
      </trkpt>
      <trkpt lat="46.19824" lon="3.36765">
        <ele>325.5</ele>
        <time>2025-02-05T18:16:38Z</time>
      </trkpt>
      <trkpt lat="46.19858" lon="3.368">
        <ele>323.3</ele>
      </trkpt>
      <trkpt lat="46.1992" lon="3.36819">
        <ele>320.3</ele>
      </trkpt>
      <trkpt lat="46.20048" lon="3.36774">
        <ele>315.4</ele>
      </trkpt>
      <trkpt lat="46.20147" lon="3.36742">
        <ele>313</ele>
      </trkpt>
      <trkpt lat="46.20238" lon="3.36707">
        <ele>311.7</ele>
      </trkpt>
      <trkpt lat="46.20288" lon="3.36675">
        <ele>311.7</ele>
      </trkpt>
      <trkpt lat="46.20321" lon="3.3666">
        <ele>311.6</ele>
      </trkpt>
      <trkpt lat="46.20348" lon="3.36662">
        <ele>311.2</ele>
      </trkpt>
      <trkpt lat="46.20379" lon="3.36637">
        <ele>312.1</ele>
      </trkpt>
      <trkpt lat="46.20428" lon="3.36628">
        <ele>312.4</ele>
      </trkpt>
      <trkpt lat="46.20465" lon="3.36643">
        <ele>312.6</ele>
      </trkpt>
      <trkpt lat="46.20525" lon="3.36671">
        <ele>312.7</ele>
      </trkpt>
      <trkpt lat="46.20596" lon="3.36641">
        <ele>313.5</ele>
      </trkpt>
      <trkpt lat="46.20683" lon="3.36622">
        <ele>314.8</ele>
      </trkpt>
      <trkpt lat="46.2079" lon="3.36624">
        <ele>316</ele>
      </trkpt>
      <trkpt lat="46.20521" lon="3.35853">
        <ele>316</ele>
        <time>2025-02-05T18:20:08Z</time>
      </trkpt>
      <trkpt lat="46.20513" lon="3.35842">
        <ele>315.8</ele>
        <time>2025-02-05T18:20:11Z</time>
      </trkpt>
      <trkpt lat="46.20511" lon="3.35831">
        <ele>315.6</ele>
        <time>2025-02-05T18:20:12Z</time>
      </trkpt>
      <trkpt lat="46.20519" lon="3.35818">
        <ele>315.1</ele>
        <time>2025-02-05T18:20:15Z</time>
      </trkpt>
      <trkpt lat="46.20521" lon="3.35809">
        <ele>315</ele>
        <time>2025-02-05T18:20:17Z</time>
      </trkpt>
      <trkpt lat="46.20525" lon="3.35788">
        <ele>315</ele>
        <time>2025-02-05T18:20:20Z</time>
      </trkpt>
      <trkpt lat="46.20528" lon="3.35758">
        <ele>314.3</ele>
        <time>2025-02-05T18:20:25Z</time>
      </trkpt>
      <trkpt lat="46.20525" lon="3.35733">
        <ele>314.1</ele>
        <time>2025-02-05T18:20:29Z</time>
      </trkpt>
      <trkpt lat="46.20511" lon="3.35707">
        <ele>314.6</ele>
        <time>2025-02-05T18:20:35Z</time>
      </trkpt>
      <trkpt lat="46.20486" lon="3.35638">
        <ele>312.9</ele>
        <time>2025-02-05T18:20:47Z</time>
      </trkpt>
      <trkpt lat="46.20553" lon="3.3562">
        <ele>311.3</ele>
        <time>2025-02-05T18:21:03Z</time>
      </trkpt>
      <trkpt lat="46.20584" lon="3.35596">
        <ele>308.3</ele>
        <time>2025-02-05T18:21:11Z</time>
      </trkpt>
      <trkpt lat="46.20572" lon="3.35586">
        <ele>307.7</ele>
        <time>2025-02-05T18:21:15Z</time>
      </trkpt>
      <trkpt lat="46.20562" lon="3.35572">
        <ele>307.4</ele>
        <time>2025-02-05T18:21:18Z</time>
      </trkpt>
      <trkpt lat="46.20541" lon="3.35551">
        <ele>307.1</ele>
        <time>2025-02-05T18:21:24Z</time>
      </trkpt>
      <trkpt lat="46.20528" lon="3.35509">
        <ele>308.7</ele>
        <time>2025-02-05T18:21:31Z</time>
      </trkpt>
      <trkpt lat="46.20516" lon="3.35456">
        <ele>309.8</ele>
        <time>2025-02-05T18:21:40Z</time>
      </trkpt>
      <trkpt lat="46.20501" lon="3.35374">
        <ele>311</ele>
        <time>2025-02-05T18:21:54Z</time>
      </trkpt>
      <trkpt lat="46.20499" lon="3.35368">
        <ele>311</ele>
        <time>2025-02-05T18:21:55Z</time>
      </trkpt>
      <trkpt lat="46.2048" lon="3.35357">
        <ele>311</ele>
        <time>2025-02-05T18:22:00Z</time>
      </trkpt>
      <trkpt lat="46.20423" lon="3.35357">
        <ele>312</ele>
        <time>2025-02-05T18:22:13Z</time>
      </trkpt>
      <trkpt lat="46.20376" lon="3.35345">
        <ele>311.7</ele>
        <time>2025-02-05T18:22:24Z</time>
      </trkpt>
      <trkpt lat="46.20324" lon="3.35328">
        <ele>311.6</ele>
        <time>2025-02-05T18:22:37Z</time>
      </trkpt>
      <trkpt lat="46.2029" lon="3.35307">
        <ele>312.6</ele>
        <time>2025-02-05T18:22:45Z</time>
      </trkpt>
      <trkpt lat="46.2026" lon="3.35269">
        <ele>311.1</ele>
        <time>2025-02-05T18:22:55Z</time>
      </trkpt>
      <trkpt lat="46.20244" lon="3.35243">
        <ele>309.8</ele>
        <time>2025-02-05T18:23:00Z</time>
      </trkpt>
      <trkpt lat="46.20227" lon="3.35216">
        <ele>309.6</ele>
        <time>2025-02-05T18:23:06Z</time>
      </trkpt>
      <trkpt lat="46.20159" lon="3.35084">
        <ele>313.3</ele>
        <time>2025-02-05T18:23:33Z</time>
      </trkpt>
      <trkpt lat="46.20121" lon="3.34999">
        <ele>312.6</ele>
        <time>2025-02-05T18:23:49Z</time>
      </trkpt>
      <trkpt lat="46.19999" lon="3.34758">
        <ele>314.3</ele>
        <time>2025-02-05T18:24:37Z</time>
      </trkpt>
      <trkpt lat="46.19969" lon="3.34696">
        <ele>312</ele>
        <time>2025-02-05T18:24:50Z</time>
      </trkpt>
      <trkpt lat="46.19899" lon="3.34537">
        <ele>312</ele>
        <time>2025-02-05T18:25:20Z</time>
      </trkpt>
      <trkpt lat="46.19847" lon="3.34451">
        <ele>313.6</ele>
        <time>2025-02-05T18:25:38Z</time>
      </trkpt>
      <trkpt lat="46.19832" lon="3.34431">
        <ele>314.1</ele>
        <time>2025-02-05T18:25:43Z</time>
      </trkpt>
      <trkpt lat="46.19723" lon="3.34332">
        <ele>316</ele>
        <time>2025-02-05T18:26:13Z</time>
      </trkpt>
      <trkpt lat="46.19606" lon="3.3464">
        <ele>325.2</ele>
        <time>2025-02-05T18:27:10Z</time>
      </trkpt>
      <trkpt lat="46.19579" lon="3.34713">
        <ele>326.3</ele>
        <time>2025-02-05T18:27:23Z</time>
      </trkpt>
      <trkpt lat="46.19577" lon="3.34731">
        <ele>325.8</ele>
        <time>2025-02-05T18:27:26Z</time>
      </trkpt>
      <trkpt lat="46.19557" lon="3.34715">
        <ele>326.3</ele>
        <time>2025-02-05T18:27:32Z</time>
      </trkpt>
      <trkpt lat="46.19171" lon="3.3438">
        <ele>329.8</ele>
        <time>2025-02-05T18:29:17Z</time>
      </trkpt>
      <trkpt lat="46.1903" lon="3.34153">
        <ele>328.5</ele>
        <time>2025-02-05T18:30:06Z</time>
      </trkpt>
      <trkpt lat="46.18587" lon="3.33444">
        <ele>324</ele>
        <time>2025-02-05T18:32:41Z</time>
      </trkpt>
      <trkpt lat="46.18576" lon="3.33428">
        <ele>323.4</ele>
        <time>2025-02-05T18:32:44Z</time>
      </trkpt>
      <trkpt lat="46.18548" lon="3.33411">
        <ele>322.9</ele>
        <time>2025-02-05T18:32:51Z</time>
      </trkpt>
      <trkpt lat="46.18384" lon="3.3331">
        <ele>324.9</ele>
        <time>2025-02-05T18:33:33Z</time>
      </trkpt>
      <trkpt lat="46.18214" lon="3.33205">
        <ele>328</ele>
        <time>2025-02-05T18:34:16Z</time>
      </trkpt>
      <trkpt lat="46.18211" lon="3.33214">
        <ele>328</ele>
        <time>2025-02-05T18:34:18Z</time>
      </trkpt>
      <trkpt lat="46.1818" lon="3.33194">
        <ele>328</ele>
        <time>2025-02-05T18:34:26Z</time>
      </trkpt>
      <trkpt lat="46.18116" lon="3.33147">
        <ele>326.2</ele>
        <time>2025-02-05T18:34:43Z</time>
      </trkpt>
      <trkpt lat="46.18069" lon="3.33107">
        <ele>323.5</ele>
        <time>2025-02-05T18:34:55Z</time>
      </trkpt>
      <trkpt lat="46.18012" lon="3.33081">
        <ele>322.4</ele>
        <time>2025-02-05T18:35:09Z</time>
      </trkpt>
      <trkpt lat="46.17974" lon="3.3305">
        <ele>321.1</ele>
        <time>2025-02-05T18:35:19Z</time>
      </trkpt>
      <trkpt lat="46.17961" lon="3.33043">
        <ele>321</ele>
        <time>2025-02-05T18:35:23Z</time>
      </trkpt>
      <trkpt lat="46.17896" lon="3.33026">
        <ele>320.2</ele>
        <time>2025-02-05T18:35:38Z</time>
      </trkpt>
      <trkpt lat="46.17871" lon="3.33023">
        <ele>320</ele>
        <time>2025-02-05T18:35:44Z</time>
      </trkpt>
      <trkpt lat="46.17867" lon="3.33089">
        <ele>321</ele>
        <time>2025-02-05T18:35:55Z</time>
      </trkpt>
      <trkpt lat="46.17858" lon="3.33144">
        <ele>321.2</ele>
        <time>2025-02-05T18:36:04Z</time>
      </trkpt>
      <trkpt lat="46.17855" lon="3.33171">
        <ele>322</ele>
        <time>2025-02-05T18:36:08Z</time>
      </trkpt>
      <trkpt lat="46.17855" lon="3.332">
        <ele>322</ele>
        <time>2025-02-05T18:36:13Z</time>
      </trkpt>
      <trkpt lat="46.17857" lon="3.33243">
        <ele>322.6</ele>
        <time>2025-02-05T18:36:20Z</time>
      </trkpt>
      <trkpt lat="46.17875" lon="3.33374">
        <ele>324.7</ele>
        <time>2025-02-05T18:36:41Z</time>
      </trkpt>
      <trkpt lat="46.17878" lon="3.33404">
        <ele>325.3</ele>
        <time>2025-02-05T18:36:46Z</time>
      </trkpt>
      <trkpt lat="46.17876" lon="3.33504">
        <ele>327.6</ele>
        <time>2025-02-05T18:37:03Z</time>
      </trkpt>
      <trkpt lat="46.17874" lon="3.33535">
        <ele>328.1</ele>
        <time>2025-02-05T18:37:08Z</time>
      </trkpt>
      <trkpt lat="46.17869" lon="3.33576">
        <ele>328.8</ele>
        <time>2025-02-05T18:37:14Z</time>
      </trkpt>
      <trkpt lat="46.17863" lon="3.33586">
        <ele>329</ele>
        <time>2025-02-05T18:37:16Z</time>
      </trkpt>
      <trkpt lat="46.17856" lon="3.33607">
        <ele>329</ele>
        <time>2025-02-05T18:37:20Z</time>
      </trkpt>
      <trkpt lat="46.17821" lon="3.33731">
        <ele>330.6</ele>
        <time>2025-02-05T18:37:42Z</time>
      </trkpt>
      <trkpt lat="46.17808" lon="3.33773">
        <ele>331</ele>
        <time>2025-02-05T18:37:49Z</time>
      </trkpt>
      <trkpt lat="46.17785" lon="3.33762">
        <ele>331.3</ele>
        <time>2025-02-05T18:37:55Z</time>
      </trkpt>
      <trkpt lat="46.17743" lon="3.33723">
        <ele>331</ele>
        <time>2025-02-05T18:38:07Z</time>
      </trkpt>
      <trkpt lat="46.17696" lon="3.33699">
        <ele>329.2</ele>
        <time>2025-02-05T18:38:18Z</time>
      </trkpt>
      <trkpt lat="46.17684" lon="3.33688">
        <ele>328.4</ele>
        <time>2025-02-05T18:38:22Z</time>
      </trkpt>
      <trkpt lat="46.17585" lon="3.33575">
        <ele>324.7</ele>
        <time>2025-02-05T18:38:51Z</time>
      </trkpt>
      <trkpt lat="46.17567" lon="3.33565">
        <ele>324.1</ele>
        <time>2025-02-05T18:38:56Z</time>
      </trkpt>
      <trkpt lat="46.17554" lon="3.33563">
        <ele>324</ele>
        <time>2025-02-05T18:38:59Z</time>
      </trkpt>
      <trkpt lat="46.17373" lon="3.33568">
        <ele>325</ele>
        <time>2025-02-05T18:39:41Z</time>
      </trkpt>
      <trkpt lat="46.17336" lon="3.33558">
        <ele>325.8</ele>
        <time>2025-02-05T18:39:50Z</time>
      </trkpt>
      <trkpt lat="46.17302" lon="3.33539">
        <ele>326.1</ele>
        <time>2025-02-05T18:39:58Z</time>
      </trkpt>
      <trkpt lat="46.17236" lon="3.33473">
        <ele>327</ele>
        <time>2025-02-05T18:40:17Z</time>
      </trkpt>
      <trkpt lat="46.17137" lon="3.33364">
        <ele>329</ele>
        <time>2025-02-05T18:40:46Z</time>
      </trkpt>
      <trkpt lat="46.17121" lon="3.3335">
        <ele>329</ele>
        <time>2025-02-05T18:40:50Z</time>
      </trkpt>
      <trkpt lat="46.17093" lon="3.33337">
        <ele>329.7</ele>
        <time>2025-02-05T18:40:57Z</time>
      </trkpt>
      <trkpt lat="46.17" lon="3.33305">
        <ele>334</ele>
        <time>2025-02-05T18:41:20Z</time>
      </trkpt>
      <trkpt lat="46.16984" lon="3.33303">
        <ele>334</ele>
        <time>2025-02-05T18:41:23Z</time>
      </trkpt>
      <trkpt lat="46.16976" lon="3.33298">
        <ele>334</ele>
        <time>2025-02-05T18:41:25Z</time>
      </trkpt>
      <trkpt lat="46.16964" lon="3.33296">
        <ele>334</ele>
        <time>2025-02-05T18:41:28Z</time>
      </trkpt>
      <trkpt lat="46.1695" lon="3.3329">
        <ele>334</ele>
        <time>2025-02-05T18:41:32Z</time>
      </trkpt>
      <trkpt lat="46.16944" lon="3.33284">
        <ele>334</ele>
        <time>2025-02-05T18:41:33Z</time>
      </trkpt>
      <trkpt lat="46.16925" lon="3.33277">
        <ele>333.3</ele>
        <time>2025-02-05T18:41:38Z</time>
      </trkpt>
      <trkpt lat="46.16889" lon="3.33273">
        <ele>332</ele>
        <time>2025-02-05T18:41:46Z</time>
      </trkpt>
      <trkpt lat="46.16883" lon="3.33266">
        <ele>331.9</ele>
        <time>2025-02-05T18:41:48Z</time>
      </trkpt>
      <trkpt lat="46.1687" lon="3.33242">
        <ele>331.1</ele>
        <time>2025-02-05T18:41:53Z</time>
      </trkpt>
      <trkpt lat="46.16861" lon="3.33237">
        <ele>330.5</ele>
        <time>2025-02-05T18:41:55Z</time>
      </trkpt>
      <trkpt lat="46.1674" lon="3.33224">
        <ele>325.3</ele>
        <time>2025-02-05T18:42:24Z</time>
      </trkpt>
      <trkpt lat="46.16666" lon="3.33207">
        <ele>322</ele>
        <time>2025-02-05T18:42:41Z</time>
      </trkpt>
      <trkpt lat="46.16662" lon="3.33196">
        <ele>322</ele>
        <time>2025-02-05T18:42:43Z</time>
      </trkpt>
      <trkpt lat="46.16657" lon="3.33171">
        <ele>320.9</ele>
        <time>2025-02-05T18:42:47Z</time>
      </trkpt>
      <trkpt lat="46.16649" lon="3.33155">
        <ele>319.8</ele>
        <time>2025-02-05T18:42:51Z</time>
      </trkpt>
      <trkpt lat="46.1662" lon="3.33115">
        <ele>315</ele>
        <time>2025-02-05T18:43:00Z</time>
      </trkpt>
      <trkpt lat="46.16603" lon="3.331">
        <ele>312.9</ele>
        <time>2025-02-05T18:43:05Z</time>
      </trkpt>
      <trkpt lat="46.16585" lon="3.33092">
        <ele>310.8</ele>
        <time>2025-02-05T18:43:09Z</time>
      </trkpt>
      <trkpt lat="46.16566" lon="3.33092">
        <ele>308.6</ele>
        <time>2025-02-05T18:43:13Z</time>
      </trkpt>
      <trkpt lat="46.16518" lon="3.33106">
        <ele>304.3</ele>
        <time>2025-02-05T18:43:25Z</time>
      </trkpt>
      <trkpt lat="46.16428" lon="3.33077">
        <ele>303.6</ele>
        <time>2025-02-05T18:43:46Z</time>
      </trkpt>
      <trkpt lat="46.16413" lon="3.33075">
        <ele>304.1</ele>
        <time>2025-02-05T18:43:50Z</time>
      </trkpt>
      <trkpt lat="46.16398" lon="3.33069">
        <ele>304.7</ele>
        <time>2025-02-05T18:43:54Z</time>
      </trkpt>
      <trkpt lat="46.16385" lon="3.3306">
        <ele>305.1</ele>
        <time>2025-02-05T18:43:57Z</time>
      </trkpt>
      <trkpt lat="46.16372" lon="3.33047">
        <ele>305.4</ele>
        <time>2025-02-05T18:44:01Z</time>
      </trkpt>
      <trkpt lat="46.16362" lon="3.33032">
        <ele>305.1</ele>
        <time>2025-02-05T18:44:04Z</time>
      </trkpt>
      <trkpt lat="46.16342" lon="3.32979">
        <ele>306.9</ele>
        <time>2025-02-05T18:44:14Z</time>
      </trkpt>
      <trkpt lat="46.16318" lon="3.32944">
        <ele>308.6</ele>
        <time>2025-02-05T18:44:22Z</time>
      </trkpt>
      <trkpt lat="46.16273" lon="3.32879">
        <ele>310.5</ele>
        <time>2025-02-05T18:44:37Z</time>
      </trkpt>
      <trkpt lat="46.16214" lon="3.32805">
        <ele>315.6</ele>
        <time>2025-02-05T18:44:55Z</time>
      </trkpt>
      <trkpt lat="46.16193" lon="3.32781">
        <ele>317.1</ele>
        <time>2025-02-05T18:45:01Z</time>
      </trkpt>
      <trkpt lat="46.16177" lon="3.32768">
        <ele>317.8</ele>
        <time>2025-02-05T18:45:05Z</time>
      </trkpt>
      <trkpt lat="46.16165" lon="3.32745">
        <ele>319</ele>
        <time>2025-02-05T18:45:10Z</time>
      </trkpt>
      <trkpt lat="46.16156" lon="3.32722">
        <ele>319.4</ele>
        <time>2025-02-05T18:45:14Z</time>
      </trkpt>
      <trkpt lat="46.16135" lon="3.32651">
        <ele>320.8</ele>
        <time>2025-02-05T18:45:27Z</time>
      </trkpt>
      <trkpt lat="46.16092" lon="3.32537">
        <ele>323.7</ele>
        <time>2025-02-05T18:45:48Z</time>
      </trkpt>
      <trkpt lat="46.16077" lon="3.32482">
        <ele>325</ele>
        <time>2025-02-05T18:45:57Z</time>
      </trkpt>
      <trkpt lat="46.1607" lon="3.32438">
        <ele>325</ele>
        <time>2025-02-05T18:46:05Z</time>
      </trkpt>
      <trkpt lat="46.16031" lon="3.32335">
        <ele>326</ele>
        <time>2025-02-05T18:46:24Z</time>
      </trkpt>
      <trkpt lat="46.15989" lon="3.32249">
        <ele>326.4</ele>
        <time>2025-02-05T18:46:41Z</time>
      </trkpt>
      <trkpt lat="46.15963" lon="3.32201">
        <ele>327</ele>
        <time>2025-02-05T18:46:50Z</time>
      </trkpt>
      <trkpt lat="46.15956" lon="3.32141">
        <ele>327</ele>
        <time>2025-02-05T18:47:00Z</time>
      </trkpt>
      <trkpt lat="46.15953" lon="3.32069">
        <ele>327</ele>
        <time>2025-02-05T18:47:12Z</time>
      </trkpt>
      <trkpt lat="46.15954" lon="3.32015">
        <ele>327</ele>
        <time>2025-02-05T18:47:21Z</time>
      </trkpt>
      <trkpt lat="46.15945" lon="3.31928">
        <ele>327.6</ele>
        <time>2025-02-05T18:47:35Z</time>
      </trkpt>
      <trkpt lat="46.15942" lon="3.31886">
        <ele>327.2</ele>
        <time>2025-02-05T18:47:42Z</time>
      </trkpt>
      <trkpt lat="46.15941" lon="3.31868">
        <ele>327.8</ele>
        <time>2025-02-05T18:47:45Z</time>
      </trkpt>
      <trkpt lat="46.1594" lon="3.31856">
        <ele>328</ele>
        <time>2025-02-05T18:47:47Z</time>
      </trkpt>
      <trkpt lat="46.15915" lon="3.31767">
        <ele>328.4</ele>
        <time>2025-02-05T18:48:02Z</time>
      </trkpt>
      <trkpt lat="46.15879" lon="3.31608">
        <ele>329.4</ele>
        <time>2025-02-05T18:48:29Z</time>
      </trkpt>
      <trkpt lat="46.15871" lon="3.31614">
        <ele>329.6</ele>
        <time>2025-02-05T18:48:31Z</time>
      </trkpt>
      <trkpt lat="46.15797" lon="3.31619">
        <ele>330</ele>
        <time>2025-02-05T18:48:49Z</time>
      </trkpt>
      <trkpt lat="46.157" lon="3.31627">
        <ele>330</ele>
        <time>2025-02-05T18:49:11Z</time>
      </trkpt>
      <trkpt lat="46.15632" lon="3.31635">
        <ele>331</ele>
        <time>2025-02-05T18:49:27Z</time>
      </trkpt>
      <trkpt lat="46.15412" lon="3.31649">
        <ele>332.6</ele>
        <time>2025-02-05T18:50:19Z</time>
      </trkpt>
      <trkpt lat="46.15138" lon="3.31675">
        <ele>334</ele>
        <time>2025-02-05T18:51:23Z</time>
      </trkpt>
      <trkpt lat="46.15143" lon="3.31742">
        <ele>333</ele>
        <time>2025-02-05T18:51:34Z</time>
      </trkpt>
      <trkpt lat="46.15153" lon="3.31788">
        <ele>332.6</ele>
        <time>2025-02-05T18:51:42Z</time>
      </trkpt>
      <trkpt lat="46.15159" lon="3.31827">
        <ele>332</ele>
        <time>2025-02-05T18:51:48Z</time>
      </trkpt>
      <trkpt lat="46.15174" lon="3.31912">
        <ele>332</ele>
        <time>2025-02-05T18:52:02Z</time>
      </trkpt>
      <trkpt lat="46.1518" lon="3.31968">
        <ele>331.1</ele>
        <time>2025-02-05T18:52:11Z</time>
      </trkpt>
      <trkpt lat="46.15191" lon="3.32031">
        <ele>331</ele>
        <time>2025-02-05T18:52:22Z</time>
      </trkpt>
      <trkpt lat="46.152" lon="3.32072">
        <ele>331</ele>
        <time>2025-02-05T18:52:29Z</time>
      </trkpt>
      <trkpt lat="46.15202" lon="3.32077">
        <ele>331</ele>
        <time>2025-02-05T18:52:30Z</time>
      </trkpt>
      <trkpt lat="46.15227" lon="3.32103">
        <ele>331</ele>
        <time>2025-02-05T18:52:37Z</time>
      </trkpt>
      <trkpt lat="46.15238" lon="3.32121">
        <ele>331</ele>
        <time>2025-02-05T18:52:41Z</time>
      </trkpt>
      <trkpt lat="46.15264" lon="3.32168">
        <ele>331</ele>
        <time>2025-02-05T18:52:51Z</time>
      </trkpt>
      <trkpt lat="46.15306" lon="3.32251">
        <ele>330</ele>
        <time>2025-02-05T18:53:07Z</time>
      </trkpt>
      <trkpt lat="46.15314" lon="3.3226">
        <ele>330</ele>
        <time>2025-02-05T18:53:10Z</time>
      </trkpt>
      <trkpt lat="46.15325" lon="3.32267">
        <ele>330</ele>
        <time>2025-02-05T18:53:12Z</time>
      </trkpt>
      <trkpt lat="46.15359" lon="3.32282">
        <ele>329.1</ele>
        <time>2025-02-05T18:53:21Z</time>
      </trkpt>
      <trkpt lat="46.15369" lon="3.32293">
        <ele>329</ele>
        <time>2025-02-05T18:53:24Z</time>
      </trkpt>
      <trkpt lat="46.15423" lon="3.32394">
        <ele>328</ele>
        <time>2025-02-05T18:53:44Z</time>
      </trkpt>
      <trkpt lat="46.15431" lon="3.32405">
        <ele>328</ele>
        <time>2025-02-05T18:53:47Z</time>
      </trkpt>
      <trkpt lat="46.15443" lon="3.32407">
        <ele>328</ele>
        <time>2025-02-05T18:53:50Z</time>
      </trkpt>
      <trkpt lat="46.15494" lon="3.32409">
        <ele>326.2</ele>
        <time>2025-02-05T18:54:02Z</time>
      </trkpt>
      <trkpt lat="46.15534" lon="3.32418">
        <ele>325</ele>
      </trkpt>
      <trkpt lat="46.15577" lon="3.32406">
        <ele>324.7</ele>
        <time>2025-02-05T18:54:21Z</time>
      </trkpt>
      <trkpt lat="46.15594" lon="3.32411">
        <ele>324.5</ele>
        <time>2025-02-05T18:54:25Z</time>
      </trkpt>
      <trkpt lat="46.15609" lon="3.3242">
        <ele>324.2</ele>
        <time>2025-02-05T18:54:29Z</time>
      </trkpt>
      <trkpt lat="46.15616" lon="3.32427">
        <ele>324.2</ele>
        <time>2025-02-05T18:54:31Z</time>
      </trkpt>
      <trkpt lat="46.15645" lon="3.32459">
        <ele>323.8</ele>
        <time>2025-02-05T18:54:39Z</time>
      </trkpt>
      <trkpt lat="46.15654" lon="3.3248">
        <ele>323.6</ele>
        <time>2025-02-05T18:54:43Z</time>
      </trkpt>
      <trkpt lat="46.15698" lon="3.32538">
        <ele>324.1</ele>
        <time>2025-02-05T18:54:57Z</time>
      </trkpt>
      <trkpt lat="46.15709" lon="3.32549">
        <ele>323.7</ele>
        <time>2025-02-05T18:55:00Z</time>
      </trkpt>
      <trkpt lat="46.15723" lon="3.32573">
        <ele>323.6</ele>
        <time>2025-02-05T18:55:05Z</time>
      </trkpt>
      <trkpt lat="46.15744" lon="3.32623">
        <ele>323.6</ele>
        <time>2025-02-05T18:55:15Z</time>
      </trkpt>
      <trkpt lat="46.15761" lon="3.32678">
        <ele>324</ele>
        <time>2025-02-05T18:55:25Z</time>
      </trkpt>
      <trkpt lat="46.15769" lon="3.32718">
        <ele>324.3</ele>
        <time>2025-02-05T18:55:31Z</time>
      </trkpt>
      <trkpt lat="46.1578" lon="3.32753">
        <ele>323.9</ele>
        <time>2025-02-05T18:55:38Z</time>
      </trkpt>
      <trkpt lat="46.15782" lon="3.32773">
        <ele>323.8</ele>
        <time>2025-02-05T18:55:41Z</time>
      </trkpt>
      <trkpt lat="46.15777" lon="3.32803">
        <ele>324</ele>
        <time>2025-02-05T18:55:46Z</time>
      </trkpt>
      <trkpt lat="46.15775" lon="3.32889">
        <ele>322</ele>
        <time>2025-02-05T18:56:00Z</time>
      </trkpt>
      <trkpt lat="46.1577" lon="3.3292">
        <ele>321.9</ele>
        <time>2025-02-05T18:56:05Z</time>
      </trkpt>
      <trkpt lat="46.15766" lon="3.32935">
        <ele>321.3</ele>
        <time>2025-02-05T18:56:07Z</time>
      </trkpt>
      <trkpt lat="46.15748" lon="3.32971">
        <ele>320</ele>
        <time>2025-02-05T18:56:15Z</time>
      </trkpt>
      <trkpt lat="46.15728" lon="3.32997">
        <ele>319.8</ele>
        <time>2025-02-05T18:56:21Z</time>
      </trkpt>
      <trkpt lat="46.15723" lon="3.33012">
        <ele>319.6</ele>
        <time>2025-02-05T18:56:24Z</time>
      </trkpt>
      <trkpt lat="46.15718" lon="3.33066">
        <ele>318</ele>
        <time>2025-02-05T18:56:32Z</time>
      </trkpt>
      <trkpt lat="46.15723" lon="3.33106">
        <ele>317.2</ele>
        <time>2025-02-05T18:56:39Z</time>
      </trkpt>
      <trkpt lat="46.15724" lon="3.33149">
        <ele>316</ele>
        <time>2025-02-05T18:56:46Z</time>
      </trkpt>
      <trkpt lat="46.15721" lon="3.33199">
        <ele>315.8</ele>
        <time>2025-02-05T18:56:54Z</time>
      </trkpt>
      <trkpt lat="46.1573" lon="3.33208">
        <ele>315.5</ele>
        <time>2025-02-05T18:56:57Z</time>
      </trkpt>
      <trkpt lat="46.15785" lon="3.33301">
        <ele>314.3</ele>
        <time>2025-02-05T18:57:16Z</time>
      </trkpt>
      <trkpt lat="46.15803" lon="3.33368">
        <ele>313.7</ele>
        <time>2025-02-05T18:57:28Z</time>
      </trkpt>
      <trkpt lat="46.15827" lon="3.33436">
        <ele>312.3</ele>
        <time>2025-02-05T18:57:40Z</time>
      </trkpt>
      <trkpt lat="46.15834" lon="3.33474">
        <ele>311.9</ele>
        <time>2025-02-05T18:57:47Z</time>
      </trkpt>
      <trkpt lat="46.15844" lon="3.33512">
        <ele>310.6</ele>
        <time>2025-02-05T18:57:53Z</time>
      </trkpt>
      <trkpt lat="46.15845" lon="3.33538">
        <ele>309.8</ele>
        <time>2025-02-05T18:57:58Z</time>
      </trkpt>
      <trkpt lat="46.15834" lon="3.33603">
        <ele>310</ele>
        <time>2025-02-05T18:58:08Z</time>
      </trkpt>
      <trkpt lat="46.1583" lon="3.33674">
        <ele>309.1</ele>
        <time>2025-02-05T18:58:20Z</time>
      </trkpt>
      <trkpt lat="46.15823" lon="3.33726">
        <ele>308.4</ele>
        <time>2025-02-05T18:58:28Z</time>
      </trkpt>
      <trkpt lat="46.15809" lon="3.338">
        <ele>307.9</ele>
        <time>2025-02-05T18:58:41Z</time>
      </trkpt>
      <trkpt lat="46.15805" lon="3.3385">
        <ele>307</ele>
        <time>2025-02-05T18:58:49Z</time>
      </trkpt>
      <trkpt lat="46.15815" lon="3.33904">
        <ele>305.1</ele>
        <time>2025-02-05T18:58:58Z</time>
      </trkpt>
      <trkpt lat="46.15818" lon="3.33944">
        <ele>303.6</ele>
        <time>2025-02-05T18:59:05Z</time>
      </trkpt>
      <trkpt lat="46.15817" lon="3.33971">
        <ele>303.6</ele>
        <time>2025-02-05T18:59:09Z</time>
      </trkpt>
      <trkpt lat="46.15819" lon="3.34001">
        <ele>303</ele>
        <time>2025-02-05T18:59:14Z</time>
      </trkpt>
      <trkpt lat="46.15826" lon="3.34032">
        <ele>301.5</ele>
        <time>2025-02-05T18:59:19Z</time>
      </trkpt>
      <trkpt lat="46.158" lon="3.34036">
        <ele>303.3</ele>
        <time>2025-02-05T18:59:25Z</time>
      </trkpt>
      <trkpt lat="46.1578" lon="3.34036">
        <ele>304.6</ele>
        <time>2025-02-05T18:59:30Z</time>
      </trkpt>
      <trkpt lat="46.15763" lon="3.34026">
        <ele>305.1</ele>
        <time>2025-02-05T18:59:34Z</time>
      </trkpt>
      <trkpt lat="46.15733" lon="3.34016">
        <ele>305.8</ele>
        <time>2025-02-05T18:59:41Z</time>
      </trkpt>
      <trkpt lat="46.15714" lon="3.34004">
        <ele>306.3</ele>
        <time>2025-02-05T18:59:46Z</time>
      </trkpt>
      <trkpt lat="46.15685" lon="3.33976">
        <ele>307</ele>
        <time>2025-02-05T18:59:54Z</time>
      </trkpt>
      <trkpt lat="46.15638" lon="3.33944">
        <ele>308</ele>
        <time>2025-02-05T19:00:06Z</time>
      </trkpt>
      <trkpt lat="46.15612" lon="3.33935">
        <ele>309</ele>
        <time>2025-02-05T19:00:13Z</time>
      </trkpt>
      <trkpt lat="46.15597" lon="3.33936">
        <ele>309.2</ele>
        <time>2025-02-05T19:00:16Z</time>
      </trkpt>
      <trkpt lat="46.1558" lon="3.33946">
        <ele>309.1</ele>
        <time>2025-02-05T19:00:21Z</time>
      </trkpt>
      <trkpt lat="46.15539" lon="3.33978">
        <ele>309.4</ele>
        <time>2025-02-05T19:00:31Z</time>
      </trkpt>
      <trkpt lat="46.15512" lon="3.34021">
        <ele>308.2</ele>
        <time>2025-02-05T19:00:41Z</time>
      </trkpt>
      <trkpt lat="46.15491" lon="3.3405">
        <ele>306.6</ele>
        <time>2025-02-05T19:00:48Z</time>
      </trkpt>
      <trkpt lat="46.1549" lon="3.34066">
        <ele>305.6</ele>
        <time>2025-02-05T19:00:50Z</time>
      </trkpt>
      <trkpt lat="46.15492" lon="3.34102">
        <ele>304.2</ele>
        <time>2025-02-05T19:00:56Z</time>
      </trkpt>
      <trkpt lat="46.15496" lon="3.34128">
        <ele>303.8</ele>
        <time>2025-02-05T19:01:00Z</time>
      </trkpt>
      <trkpt lat="46.15502" lon="3.34187">
        <ele>302.3</ele>
        <time>2025-02-05T19:01:10Z</time>
      </trkpt>
      <trkpt lat="46.15499" lon="3.34164">
        <ele>303</ele>
        <time>2025-02-05T19:01:14Z</time>
      </trkpt>
      <trkpt lat="46.15486" lon="3.3416">
        <ele>301.6</ele>
        <time>2025-02-05T19:01:17Z</time>
      </trkpt>
      <trkpt lat="46.15455" lon="3.34132">
        <ele>295.8</ele>
        <time>2025-02-05T19:01:25Z</time>
      </trkpt>
      <trkpt lat="46.15449" lon="3.34127">
        <ele>294.2</ele>
        <time>2025-02-05T19:01:27Z</time>
      </trkpt>
      <trkpt lat="46.15421" lon="3.34092">
        <ele>289.3</ele>
        <time>2025-02-05T19:01:36Z</time>
      </trkpt>
      <trkpt lat="46.15362" lon="3.33997">
        <ele>287.2</ele>
        <time>2025-02-05T19:01:56Z</time>
      </trkpt>
      <trkpt lat="46.15344" lon="3.33951">
        <ele>287.1</ele>
        <time>2025-02-05T19:02:05Z</time>
      </trkpt>
      <trkpt lat="46.15328" lon="3.3392">
        <ele>286.9</ele>
        <time>2025-02-05T19:02:11Z</time>
      </trkpt>
      <trkpt lat="46.15321" lon="3.33916">
        <ele>287</ele>
        <time>2025-02-05T19:02:13Z</time>
      </trkpt>
      <trkpt lat="46.15316" lon="3.3391">
        <ele>287.1</ele>
        <time>2025-02-05T19:02:14Z</time>
      </trkpt>
      <trkpt lat="46.15309" lon="3.33912">
        <ele>287</ele>
        <time>2025-02-05T19:02:16Z</time>
      </trkpt>
      <trkpt lat="46.15302" lon="3.33915">
        <ele>287.1</ele>
        <time>2025-02-05T19:02:18Z</time>
      </trkpt>
      <trkpt lat="46.15295" lon="3.33924">
        <ele>287.2</ele>
        <time>2025-02-05T19:02:20Z</time>
      </trkpt>
      <trkpt lat="46.15275" lon="3.33936">
        <ele>288.1</ele>
        <time>2025-02-05T19:02:25Z</time>
      </trkpt>
      <trkpt lat="46.15269" lon="3.33933">
        <ele>288.3</ele>
        <time>2025-02-05T19:02:27Z</time>
      </trkpt>
      <trkpt lat="46.15262" lon="3.33916">
        <ele>288.6</ele>
        <time>2025-02-05T19:02:30Z</time>
      </trkpt>
      <trkpt lat="46.15245" lon="3.33914">
        <ele>289.3</ele>
        <time>2025-02-05T19:02:34Z</time>
      </trkpt>
      <trkpt lat="46.15246" lon="3.33927">
        <ele>289.1</ele>
        <time>2025-02-05T19:02:36Z</time>
      </trkpt>
      <trkpt lat="46.15243" lon="3.33946">
        <ele>289</ele>
        <time>2025-02-05T19:02:39Z</time>
      </trkpt>
      <trkpt lat="46.15233" lon="3.3399">
        <ele>288.2</ele>
        <time>2025-02-05T19:02:46Z</time>
      </trkpt>
      <trkpt lat="46.15227" lon="3.34021">
        <ele>287.9</ele>
        <time>2025-02-05T19:02:52Z</time>
      </trkpt>
      <trkpt lat="46.15224" lon="3.34054">
        <ele>287.9</ele>
        <time>2025-02-05T19:02:57Z</time>
      </trkpt>
      <trkpt lat="46.1522" lon="3.34079">
        <ele>287.2</ele>
        <time>2025-02-05T19:03:01Z</time>
      </trkpt>
      <trkpt lat="46.15213" lon="3.34096">
        <ele>287.6</ele>
        <time>2025-02-05T19:03:04Z</time>
      </trkpt>
      <trkpt lat="46.15203" lon="3.34105">
        <ele>287.9</ele>
        <time>2025-02-05T19:03:07Z</time>
      </trkpt>
      <trkpt lat="46.15188" lon="3.34112">
        <ele>289.5</ele>
        <time>2025-02-05T19:03:11Z</time>
      </trkpt>
      <trkpt lat="46.15168" lon="3.34139">
        <ele>291</ele>
        <time>2025-02-05T19:03:17Z</time>
      </trkpt>
      <trkpt lat="46.15163" lon="3.34142">
        <ele>289.9</ele>
        <time>2025-02-05T19:03:18Z</time>
      </trkpt>
      <trkpt lat="46.15144" lon="3.3414">
        <ele>286.8</ele>
        <time>2025-02-05T19:03:23Z</time>
      </trkpt>
      <trkpt lat="46.15101" lon="3.34142">
        <ele>283.1</ele>
        <time>2025-02-05T19:03:33Z</time>
      </trkpt>
      <trkpt lat="46.15085" lon="3.34143">
        <ele>282</ele>
        <time>2025-02-05T19:03:37Z</time>
      </trkpt>
      <trkpt lat="46.15064" lon="3.34098">
        <ele>282.4</ele>
        <time>2025-02-05T19:03:45Z</time>
      </trkpt>
      <trkpt lat="46.1505" lon="3.34077">
        <ele>282.4</ele>
        <time>2025-02-05T19:03:50Z</time>
      </trkpt>
      <trkpt lat="46.14991" lon="3.34017">
        <ele>282.7</ele>
        <time>2025-02-05T19:04:07Z</time>
      </trkpt>
      <trkpt lat="46.14964" lon="3.33976">
        <ele>283.6</ele>
        <time>2025-02-05T19:04:16Z</time>
      </trkpt>
      <trkpt lat="46.14953" lon="3.33965">
        <ele>283.7</ele>
        <time>2025-02-05T19:04:19Z</time>
      </trkpt>
      <trkpt lat="46.14935" lon="3.33955">
        <ele>283.5</ele>
        <time>2025-02-05T19:04:24Z</time>
      </trkpt>
      <trkpt lat="46.14871" lon="3.33929">
        <ele>283.5</ele>
        <time>2025-02-05T19:04:39Z</time>
      </trkpt>
      <trkpt lat="46.14849" lon="3.33916">
        <ele>283.6</ele>
        <time>2025-02-05T19:04:45Z</time>
      </trkpt>
      <trkpt lat="46.14784" lon="3.33866">
        <ele>284.8</ele>
        <time>2025-02-05T19:05:02Z</time>
      </trkpt>
      <trkpt lat="46.14763" lon="3.33847">
        <ele>285.2</ele>
        <time>2025-02-05T19:05:08Z</time>
      </trkpt>
      <trkpt lat="46.14715" lon="3.33796">
        <ele>284.1</ele>
        <time>2025-02-05T19:05:22Z</time>
      </trkpt>
      <trkpt lat="46.14702" lon="3.33788">
        <ele>283.9</ele>
        <time>2025-02-05T19:05:25Z</time>
      </trkpt>
      <trkpt lat="46.14678" lon="3.33778">
        <ele>284</ele>
        <time>2025-02-05T19:05:31Z</time>
      </trkpt>
      <trkpt lat="46.14658" lon="3.33764">
        <ele>284.2</ele>
        <time>2025-02-05T19:05:36Z</time>
      </trkpt>
      <trkpt lat="46.14614" lon="3.33729">
        <ele>284.5</ele>
        <time>2025-02-05T19:05:48Z</time>
      </trkpt>
      <trkpt lat="46.14533" lon="3.33816">
        <ele>283</ele>
        <time>2025-02-05T19:06:11Z</time>
      </trkpt>
      <trkpt lat="46.14507" lon="3.33849">
        <ele>283</ele>
        <time>2025-02-05T19:06:20Z</time>
      </trkpt>
      <trkpt lat="46.14507" lon="3.33849">
        <ele>283</ele>
        <time>2025-02-05T19:06:20Z</time>
      </trkpt>
      <trkpt lat="46.14496" lon="3.33887">
        <ele>283.1</ele>
        <time>2025-02-05T19:06:26Z</time>
      </trkpt>
      <trkpt lat="46.14481" lon="3.33998">
        <ele>286.3</ele>
        <time>2025-02-05T19:06:45Z</time>
      </trkpt>
      <trkpt lat="46.14477" lon="3.34047">
        <ele>289.9</ele>
        <time>2025-02-05T19:06:53Z</time>
      </trkpt>
      <trkpt lat="46.14473" lon="3.34073">
        <ele>292.2</ele>
        <time>2025-02-05T19:06:57Z</time>
      </trkpt>
      <trkpt lat="46.14452" lon="3.34192">
        <ele>304.7</ele>
        <time>2025-02-05T19:07:17Z</time>
      </trkpt>
      <trkpt lat="46.14447" lon="3.34219">
        <ele>308</ele>
        <time>2025-02-05T19:07:21Z</time>
      </trkpt>
      <trkpt lat="46.14437" lon="3.34235">
        <ele>311.8</ele>
        <time>2025-02-05T19:07:25Z</time>
      </trkpt>
      <trkpt lat="46.14419" lon="3.34282">
        <ele>316</ele>
        <time>2025-02-05T19:07:33Z</time>
      </trkpt>
      <trkpt lat="46.14441" lon="3.34295">
        <ele>314.1</ele>
        <time>2025-02-05T19:07:39Z</time>
      </trkpt>
      <trkpt lat="46.14443" lon="3.34299">
        <ele>314</ele>
        <time>2025-02-05T19:07:40Z</time>
      </trkpt>
      <trkpt lat="46.14448" lon="3.3431">
        <ele>313.7</ele>
        <time>2025-02-05T19:07:42Z</time>
      </trkpt>
      <trkpt lat="46.14432" lon="3.34383">
        <ele>312.2</ele>
        <time>2025-02-05T19:07:54Z</time>
      </trkpt>
      <trkpt lat="46.1441" lon="3.34422">
        <ele>314.3</ele>
        <time>2025-02-05T19:08:02Z</time>
      </trkpt>
      <trkpt lat="46.14396" lon="3.3453">
        <ele>319.2</ele>
        <time>2025-02-05T19:08:20Z</time>
      </trkpt>
      <trkpt lat="46.14398" lon="3.34554">
        <ele>319</ele>
        <time>2025-02-05T19:08:24Z</time>
      </trkpt>
      <trkpt lat="46.14428" lon="3.3459">
        <ele>318.5</ele>
        <time>2025-02-05T19:08:33Z</time>
      </trkpt>
      <trkpt lat="46.14433" lon="3.34625">
        <ele>321.5</ele>
        <time>2025-02-05T19:08:39Z</time>
      </trkpt>
      <trkpt lat="46.14418" lon="3.34666">
        <ele>325</ele>
        <time>2025-02-05T19:08:46Z</time>
      </trkpt>
      <trkpt lat="46.14361" lon="3.34727">
        <ele>334.2</ele>
        <time>2025-02-05T19:09:03Z</time>
      </trkpt>
      <trkpt lat="46.1433" lon="3.34754">
        <ele>336.1</ele>
        <time>2025-02-05T19:09:11Z</time>
      </trkpt>
      <trkpt lat="46.14316" lon="3.34774">
        <ele>336.9</ele>
        <time>2025-02-05T19:09:16Z</time>
      </trkpt>
      <trkpt lat="46.14302" lon="3.34815">
        <ele>337.5</ele>
        <time>2025-02-05T19:09:23Z</time>
      </trkpt>
      <trkpt lat="46.14291" lon="3.34879">
        <ele>340.2</ele>
        <time>2025-02-05T19:09:34Z</time>
      </trkpt>
      <trkpt lat="46.14285" lon="3.34915">
        <ele>341.7</ele>
        <time>2025-02-05T19:09:40Z</time>
      </trkpt>
      <trkpt lat="46.14353" lon="3.34989">
        <ele>342.7</ele>
        <time>2025-02-05T19:10:00Z</time>
      </trkpt>
      <trkpt lat="46.14429" lon="3.35067">
        <ele>340.6</ele>
        <time>2025-02-05T19:10:22Z</time>
      </trkpt>
      <trkpt lat="46.14393" lon="3.35144">
        <ele>342.9</ele>
        <time>2025-02-05T19:10:37Z</time>
      </trkpt>
      <trkpt lat="46.1436" lon="3.35221">
        <ele>342.1</ele>
        <time>2025-02-05T19:10:51Z</time>
      </trkpt>
      <trkpt lat="46.14335" lon="3.35297">
        <ele>341.3</ele>
        <time>2025-02-05T19:11:05Z</time>
      </trkpt>
      <trkpt lat="46.14288" lon="3.35395">
        <ele>338.9</ele>
        <time>2025-02-05T19:11:24Z</time>
      </trkpt>
      <trkpt lat="46.14276" lon="3.35436">
        <ele>337.3</ele>
        <time>2025-02-05T19:11:32Z</time>
      </trkpt>
      <trkpt lat="46.14267" lon="3.35445">
        <ele>337</ele>
        <time>2025-02-05T19:11:34Z</time>
      </trkpt>
      <trkpt lat="46.14247" lon="3.35455">
        <ele>336.6</ele>
        <time>2025-02-05T19:11:39Z</time>
      </trkpt>
      <trkpt lat="46.14208" lon="3.35358">
        <ele>339.1</ele>
        <time>2025-02-05T19:11:57Z</time>
      </trkpt>
      <trkpt lat="46.14051" lon="3.35616">
        <ele>327.3</ele>
        <time>2025-02-05T19:12:53Z</time>
      </trkpt>
      <trkpt lat="46.14048" lon="3.35629">
        <ele>326.5</ele>
        <time>2025-02-05T19:12:55Z</time>
      </trkpt>
      <trkpt lat="46.14045" lon="3.35693">
        <ele>323.9</ele>
        <time>2025-02-05T19:13:05Z</time>
      </trkpt>
      <trkpt lat="46.14039" lon="3.35717">
        <ele>322.1</ele>
        <time>2025-02-05T19:13:10Z</time>
      </trkpt>
      <trkpt lat="46.14023" lon="3.35747">
        <ele>319.9</ele>
        <time>2025-02-05T19:13:16Z</time>
      </trkpt>
      <trkpt lat="46.14018" lon="3.35769">
        <ele>318.5</ele>
        <time>2025-02-05T19:13:19Z</time>
      </trkpt>
      <trkpt lat="46.14017" lon="3.35808">
        <ele>316.8</ele>
        <time>2025-02-05T19:13:26Z</time>
      </trkpt>
      <trkpt lat="46.1402" lon="3.35836">
        <ele>314.9</ele>
        <time>2025-02-05T19:13:30Z</time>
      </trkpt>
      <trkpt lat="46.1403" lon="3.35878">
        <ele>314.1</ele>
        <time>2025-02-05T19:13:37Z</time>
      </trkpt>
      <trkpt lat="46.14033" lon="3.35906">
        <ele>314</ele>
        <time>2025-02-05T19:13:42Z</time>
      </trkpt>
      <trkpt lat="46.14031" lon="3.3593">
        <ele>313.8</ele>
        <time>2025-02-05T19:13:46Z</time>
      </trkpt>
      <trkpt lat="46.14024" lon="3.35957">
        <ele>315.3</ele>
        <time>2025-02-05T19:13:51Z</time>
      </trkpt>
      <trkpt lat="46.14014" lon="3.35987">
        <ele>317.5</ele>
        <time>2025-02-05T19:13:56Z</time>
      </trkpt>
      <trkpt lat="46.14007" lon="3.36004">
        <ele>318.6</ele>
        <time>2025-02-05T19:13:59Z</time>
      </trkpt>
      <trkpt lat="46.13995" lon="3.36018">
        <ele>320.1</ele>
        <time>2025-02-05T19:14:03Z</time>
      </trkpt>
      <trkpt lat="46.13975" lon="3.36031">
        <ele>321.9</ele>
        <time>2025-02-05T19:14:08Z</time>
      </trkpt>
      <trkpt lat="46.13946" lon="3.36046">
        <ele>324.5</ele>
        <time>2025-02-05T19:14:15Z</time>
      </trkpt>
      <trkpt lat="46.1393" lon="3.36073">
        <ele>325</ele>
        <time>2025-02-05T19:14:21Z</time>
      </trkpt>
      <trkpt lat="46.13891" lon="3.36133">
        <ele>325.2</ele>
        <time>2025-02-05T19:14:34Z</time>
      </trkpt>
      <trkpt lat="46.13889" lon="3.36141">
        <ele>325</ele>
        <time>2025-02-05T19:14:36Z</time>
      </trkpt>
      <trkpt lat="46.13891" lon="3.36156">
        <ele>325</ele>
        <time>2025-02-05T19:14:38Z</time>
      </trkpt>
      <trkpt lat="46.13893" lon="3.36158">
        <ele>325</ele>
        <time>2025-02-05T19:14:39Z</time>
      </trkpt>
      <trkpt lat="46.13891" lon="3.36156">
        <ele>325</ele>
        <time>2025-02-05T19:14:39Z</time>
      </trkpt>
      <trkpt lat="46.13887" lon="3.36163">
        <ele>325</ele>
        <time>2025-02-05T19:14:41Z</time>
      </trkpt>
      <trkpt lat="46.13875" lon="3.36167">
        <ele>325</ele>
        <time>2025-02-05T19:14:44Z</time>
      </trkpt>
      <trkpt lat="46.13858" lon="3.36168">
        <ele>325</ele>
        <time>2025-02-05T19:14:48Z</time>
      </trkpt>
      <trkpt lat="46.13761" lon="3.36187">
        <ele>325.3</ele>
        <time>2025-02-05T19:15:10Z</time>
      </trkpt>
      <trkpt lat="46.13688" lon="3.36209">
        <ele>323.5</ele>
        <time>2025-02-05T19:15:28Z</time>
      </trkpt>
      <trkpt lat="46.13591" lon="3.36238">
        <ele>323.2</ele>
        <time>2025-02-05T19:15:51Z</time>
      </trkpt>
      <trkpt lat="46.13345" lon="3.36302">
        <ele>316.7</ele>
        <time>2025-02-05T19:16:49Z</time>
      </trkpt>
      <trkpt lat="46.13283" lon="3.36323">
        <ele>312.1</ele>
        <time>2025-02-05T19:17:04Z</time>
      </trkpt>
      <trkpt lat="46.13256" lon="3.36368">
        <ele>308.1</ele>
        <time>2025-02-05T19:17:14Z</time>
      </trkpt>
      <trkpt lat="46.13241" lon="3.36451">
        <ele>306.4</ele>
        <time>2025-02-05T19:17:28Z</time>
      </trkpt>
      <trkpt lat="46.13221" lon="3.36504">
        <ele>309.1</ele>
        <time>2025-02-05T19:17:37Z</time>
      </trkpt>
      <trkpt lat="46.1315" lon="3.36591">
        <ele>318.1</ele>
        <time>2025-02-05T19:17:59Z</time>
      </trkpt>
      <trkpt lat="46.13104" lon="3.36656">
        <ele>321.5</ele>
        <time>2025-02-05T19:18:14Z</time>
      </trkpt>
      <trkpt lat="46.13075" lon="3.36697">
        <ele>322</ele>
        <time>2025-02-05T19:18:24Z</time>
      </trkpt>
      <trkpt lat="46.13045" lon="3.36716">
        <ele>322.3</ele>
        <time>2025-02-05T19:18:31Z</time>
      </trkpt>
      <trkpt lat="46.13038" lon="3.36727">
        <ele>322.6</ele>
        <time>2025-02-05T19:18:34Z</time>
      </trkpt>
      <trkpt lat="46.13029" lon="3.36743">
        <ele>323</ele>
        <time>2025-02-05T19:18:37Z</time>
      </trkpt>
      <trkpt lat="46.13025" lon="3.36766">
        <ele>322.4</ele>
        <time>2025-02-05T19:18:41Z</time>
      </trkpt>
      <trkpt lat="46.13004" lon="3.36758">
        <ele>322.7</ele>
        <time>2025-02-05T19:18:46Z</time>
      </trkpt>
      <trkpt lat="46.12966" lon="3.3675">
        <ele>322.2</ele>
        <time>2025-02-05T19:18:55Z</time>
      </trkpt>
      <trkpt lat="46.12685" lon="3.36694">
        <ele>319</ele>
        <time>2025-02-05T19:20:01Z</time>
      </trkpt>
      <trkpt lat="46.12652" lon="3.36687">
        <ele>318.1</ele>
        <time>2025-02-05T19:20:09Z</time>
      </trkpt>
      <trkpt lat="46.12646" lon="3.36692">
        <ele>317.6</ele>
        <time>2025-02-05T19:20:11Z</time>
      </trkpt>
      <trkpt lat="46.12624" lon="3.36609">
        <ele>318</ele>
        <time>2025-02-05T19:20:25Z</time>
      </trkpt>
      <trkpt lat="46.12605" lon="3.36531">
        <ele>319.9</ele>
        <time>2025-02-05T19:20:38Z</time>
      </trkpt>
      <trkpt lat="46.12541" lon="3.36561">
        <ele>317.9</ele>
        <time>2025-02-05T19:20:54Z</time>
      </trkpt>
      <trkpt lat="46.12532" lon="3.3656">
        <ele>317.9</ele>
        <time>2025-02-05T19:20:56Z</time>
      </trkpt>
      <trkpt lat="46.12519" lon="3.36556">
        <ele>318</ele>
        <time>2025-02-05T19:20:59Z</time>
      </trkpt>
      <trkpt lat="46.12457" lon="3.36514">
        <ele>318.7</ele>
        <time>2025-02-05T19:21:15Z</time>
      </trkpt>
      <trkpt lat="46.12445" lon="3.36509">
        <ele>318.7</ele>
        <time>2025-02-05T19:21:18Z</time>
      </trkpt>
      <trkpt lat="46.12405" lon="3.36532">
        <ele>313.9</ele>
        <time>2025-02-05T19:21:28Z</time>
      </trkpt>
      <trkpt lat="46.12366" lon="3.36565">
        <ele>308.7</ele>
        <time>2025-02-05T19:21:39Z</time>
      </trkpt>
      <trkpt lat="46.12321" lon="3.3661">
        <ele>302.6</ele>
        <time>2025-02-05T19:21:52Z</time>
      </trkpt>
      <trkpt lat="46.12286" lon="3.36648">
        <ele>299</ele>
        <time>2025-02-05T19:22:02Z</time>
      </trkpt>
      <trkpt lat="46.12262" lon="3.36682">
        <ele>296.6</ele>
        <time>2025-02-05T19:22:10Z</time>
      </trkpt>
      <trkpt lat="46.12248" lon="3.36709">
        <ele>296.2</ele>
        <time>2025-02-05T19:22:15Z</time>
      </trkpt>
      <trkpt lat="46.12239" lon="3.36731">
        <ele>297.4</ele>
        <time>2025-02-05T19:22:19Z</time>
      </trkpt>
      <trkpt lat="46.12206" lon="3.36701">
        <ele>300.1</ele>
        <time>2025-02-05T19:22:28Z</time>
      </trkpt>
      <trkpt lat="46.12187" lon="3.3668">
        <ele>301</ele>
        <time>2025-02-05T19:22:34Z</time>
      </trkpt>
      <trkpt lat="46.1216" lon="3.36649">
        <ele>302.1</ele>
        <time>2025-02-05T19:22:42Z</time>
      </trkpt>
      <trkpt lat="46.121" lon="3.36593">
        <ele>306.2</ele>
        <time>2025-02-05T19:22:59Z</time>
      </trkpt>
      <trkpt lat="46.12031" lon="3.36506">
        <ele>309.2</ele>
        <time>2025-02-05T19:23:20Z</time>
      </trkpt>
      <trkpt lat="46.11974" lon="3.36448">
        <ele>312.2</ele>
        <time>2025-02-05T19:23:36Z</time>
      </trkpt>
      <trkpt lat="46.11925" lon="3.36428">
        <ele>318.4</ele>
        <time>2025-02-05T19:23:48Z</time>
      </trkpt>
      <trkpt lat="46.11895" lon="3.36425">
        <ele>322.4</ele>
        <time>2025-02-05T19:23:55Z</time>
      </trkpt>
      <trkpt lat="46.11876" lon="3.36423">
        <ele>324</ele>
        <time>2025-02-05T19:24:00Z</time>
      </trkpt>
      <trkpt lat="46.11835" lon="3.36412">
        <ele>325.6</ele>
        <time>2025-02-05T19:24:10Z</time>
      </trkpt>
      <trkpt lat="46.11674" lon="3.36408">
        <ele>323.9</ele>
        <time>2025-02-05T19:24:47Z</time>
      </trkpt>
      <trkpt lat="46.1166" lon="3.36404">
        <ele>323.7</ele>
        <time>2025-02-05T19:24:51Z</time>
      </trkpt>
      <trkpt lat="46.11415" lon="3.36242">
        <ele>333</ele>
      </trkpt>
      <trkpt lat="46.11338" lon="3.36229">
        <ele>333.8</ele>
      </trkpt>
      <trkpt lat="46.11313" lon="3.36212">
        <ele>334.2</ele>
      </trkpt>
      <trkpt lat="46.11313" lon="3.3613">
        <ele>334.3</ele>
      </trkpt>
      <trkpt lat="46.11256" lon="3.36004">
        <ele>332.7</ele>
      </trkpt>
      <trkpt lat="46.11189" lon="3.35916">
        <ele>333.3</ele>
      </trkpt>
      <trkpt lat="46.11153" lon="3.35787">
        <ele>336</ele>
      </trkpt>
      <trkpt lat="46.1111" lon="3.35731">
        <ele>341.7</ele>
      </trkpt>
      <trkpt lat="46.11073" lon="3.35712">
        <ele>343.7</ele>
      </trkpt>
      <trkpt lat="46.10972" lon="3.35725">
        <ele>346.9</ele>
      </trkpt>
      <trkpt lat="46.10963" lon="3.35677">
        <ele>348.8</ele>
      </trkpt>
      <trkpt lat="46.10933" lon="3.35632">
        <ele>350.2</ele>
      </trkpt>
      <trkpt lat="46.10911" lon="3.35587">
        <ele>351.2</ele>
      </trkpt>
      <trkpt lat="46.10837" lon="3.35549">
        <ele>352.7</ele>
      </trkpt>
      <trkpt lat="46.1078" lon="3.35551">
        <ele>353</ele>
      </trkpt>
      <trkpt lat="46.10731" lon="3.35506">
        <ele>353</ele>
      </trkpt>
      <trkpt lat="46.10703" lon="3.35433">
        <ele>351.3</ele>
      </trkpt>
      <trkpt lat="46.10649" lon="3.35379">
        <ele>352.6</ele>
      </trkpt>
      <trkpt lat="46.1063" lon="3.35311">
        <ele>352.3</ele>
      </trkpt>
      <trkpt lat="46.10624" lon="3.35253">
        <ele>351.5</ele>
      </trkpt>
      <trkpt lat="46.10593" lon="3.35192">
        <ele>352.6</ele>
      </trkpt>
      <trkpt lat="46.10715" lon="3.35115">
        <ele>342.6</ele>
      </trkpt>
      <trkpt lat="46.10684" lon="3.35026">
        <ele>343.5</ele>
      </trkpt>
      <trkpt lat="46.10648" lon="3.35027">
        <ele>346.7</ele>
      </trkpt>
      <trkpt lat="46.10599" lon="3.35017">
        <ele>348.7</ele>
      </trkpt>
      <trkpt lat="46.10581" lon="3.34944">
        <ele>348.2</ele>
      </trkpt>
      <trkpt lat="46.10555" lon="3.34931">
        <ele>350</ele>
      </trkpt>
      <trkpt lat="46.10502" lon="3.34969">
        <ele>353.8</ele>
      </trkpt>
      <trkpt lat="46.10435" lon="3.35008">
        <ele>357.3</ele>
      </trkpt>
      <trkpt lat="46.10355" lon="3.35042">
        <ele>358.6</ele>
      </trkpt>
      <trkpt lat="46.10462" lon="3.35439">
        <ele>355.5</ele>
      </trkpt>
      <trkpt lat="46.10529" lon="3.3571">
        <ele>348.5</ele>
      </trkpt>
      <trkpt lat="46.10549" lon="3.3576">
        <ele>346.9</ele>
      </trkpt>
      <trkpt lat="46.10564" lon="3.35784">
        <ele>345.9</ele>
      </trkpt>
      <trkpt lat="46.1055" lon="3.35816">
        <ele>345.7</ele>
      </trkpt>
      <trkpt lat="46.10533" lon="3.3582">
        <ele>345.6</ele>
      </trkpt>
      <trkpt lat="46.10564" lon="3.35868">
        <ele>345.4</ele>
      </trkpt>
      <trkpt lat="46.106" lon="3.36006">
        <ele>341.5</ele>
      </trkpt>
      <trkpt lat="46.10947" lon="3.37382">
        <ele>330</ele>
        <time>2025-02-05T19:30:07Z</time>
      </trkpt>
      <trkpt lat="46.10954" lon="3.37411">
        <ele>329.7</ele>
        <time>2025-02-05T19:30:11Z</time>
      </trkpt>
      <trkpt lat="46.10992" lon="3.37405">
        <ele>329.4</ele>
        <time>2025-02-05T19:30:28Z</time>
      </trkpt>
      <trkpt lat="46.1103" lon="3.37483">
        <ele>328</ele>
        <time>2025-02-05T19:30:43Z</time>
      </trkpt>
      <trkpt lat="46.1106" lon="3.3752">
        <ele>327.4</ele>
      </trkpt>
      <trkpt lat="46.11072" lon="3.37567">
        <ele>327</ele>
      </trkpt>
      <trkpt lat="46.11074" lon="3.37582">
        <ele>327</ele>
        <time>2025-02-05T19:31:00Z</time>
      </trkpt>
      <trkpt lat="46.11075" lon="3.37607">
        <ele>326.4</ele>
        <time>2025-02-05T19:31:04Z</time>
      </trkpt>
      <trkpt lat="46.11077" lon="3.37712">
        <ele>327.2</ele>
        <time>2025-02-05T19:31:20Z</time>
      </trkpt>
      <trkpt lat="46.11102" lon="3.37828">
        <ele>328.1</ele>
        <time>2025-02-05T19:31:43Z</time>
      </trkpt>
      <trkpt lat="46.11113" lon="3.37898">
        <ele>328.9</ele>
        <time>2025-02-05T19:31:54Z</time>
      </trkpt>
      <trkpt lat="46.11118" lon="3.37947">
        <ele>327.8</ele>
        <time>2025-02-05T19:32:02Z</time>
      </trkpt>
      <trkpt lat="46.11109" lon="3.38004">
        <ele>329.1</ele>
        <time>2025-02-05T19:32:12Z</time>
      </trkpt>
      <trkpt lat="46.11082" lon="3.38055">
        <ele>331</ele>
        <time>2025-02-05T19:32:22Z</time>
      </trkpt>
      <trkpt lat="46.1104" lon="3.3814">
        <ele>332.6</ele>
        <time>2025-02-05T19:32:39Z</time>
      </trkpt>
      <trkpt lat="46.11022" lon="3.38198">
        <ele>333.3</ele>
        <time>2025-02-05T19:32:49Z</time>
      </trkpt>
      <trkpt lat="46.11018" lon="3.38212">
        <ele>334</ele>
        <time>2025-02-05T19:32:52Z</time>
      </trkpt>
      <trkpt lat="46.11009" lon="3.38221">
        <ele>334.6</ele>
        <time>2025-02-05T19:32:55Z</time>
      </trkpt>
      <trkpt lat="46.11012" lon="3.38232">
        <ele>334.4</ele>
        <time>2025-02-05T19:32:56Z</time>
      </trkpt>
      <trkpt lat="46.11011" lon="3.38239">
        <ele>334.2</ele>
        <time>2025-02-05T19:32:58Z</time>
      </trkpt>
      <trkpt lat="46.11017" lon="3.38254">
        <ele>334.1</ele>
        <time>2025-02-05T19:33:00Z</time>
      </trkpt>
      <trkpt lat="46.11061" lon="3.38343">
        <ele>333.9</ele>
        <time>2025-02-05T19:33:18Z</time>
      </trkpt>
      <trkpt lat="46.11065" lon="3.38356">
        <ele>333.9</ele>
        <time>2025-02-05T19:33:20Z</time>
      </trkpt>
      <trkpt lat="46.11175" lon="3.38571">
        <ele>331.9</ele>
        <time>2025-02-05T19:34:04Z</time>
      </trkpt>
      <trkpt lat="46.11213" lon="3.38644">
        <ele>332</ele>
        <time>2025-02-05T19:34:18Z</time>
      </trkpt>
      <trkpt lat="46.11228" lon="3.38674">
        <ele>332</ele>
        <time>2025-02-05T19:34:24Z</time>
      </trkpt>
      <trkpt lat="46.11266" lon="3.38744">
        <ele>332</ele>
        <time>2025-02-05T19:34:39Z</time>
      </trkpt>
      <trkpt lat="46.11288" lon="3.38785">
        <ele>332.5</ele>
        <time>2025-02-05T19:34:47Z</time>
      </trkpt>
      <trkpt lat="46.11309" lon="3.38825">
        <ele>332</ele>
        <time>2025-02-05T19:34:55Z</time>
      </trkpt>
      <trkpt lat="46.11353" lon="3.3891">
        <ele>332</ele>
        <time>2025-02-05T19:35:12Z</time>
      </trkpt>
      <trkpt lat="46.11374" lon="3.38899">
        <ele>332</ele>
        <time>2025-02-05T19:35:18Z</time>
      </trkpt>
      <trkpt lat="46.11459" lon="3.38856">
        <ele>331.4</ele>
        <time>2025-02-05T19:35:39Z</time>
      </trkpt>
      <trkpt lat="46.11481" lon="3.38845">
        <ele>331</ele>
        <time>2025-02-05T19:35:44Z</time>
      </trkpt>
      <trkpt lat="46.11504" lon="3.38834">
        <ele>330.9</ele>
        <time>2025-02-05T19:35:50Z</time>
      </trkpt>
      <trkpt lat="46.1156" lon="3.388">
        <ele>330</ele>
        <time>2025-02-05T19:36:04Z</time>
      </trkpt>
      <trkpt lat="46.11578" lon="3.38786">
        <ele>330</ele>
        <time>2025-02-05T19:36:09Z</time>
      </trkpt>
      <trkpt lat="46.11598" lon="3.38766">
        <ele>329</ele>
        <time>2025-02-05T19:36:14Z</time>
      </trkpt>
      <trkpt lat="46.11611" lon="3.38749">
        <ele>328</ele>
        <time>2025-02-05T19:36:19Z</time>
      </trkpt>
      <trkpt lat="46.1162" lon="3.38728">
        <ele>326.6</ele>
        <time>2025-02-05T19:36:23Z</time>
      </trkpt>
      <trkpt lat="46.11627" lon="3.38708">
        <ele>324.8</ele>
        <time>2025-02-05T19:36:26Z</time>
      </trkpt>
      <trkpt lat="46.11801" lon="3.38912">
        <ele>322.9</ele>
        <time>2025-02-05T19:37:19Z</time>
      </trkpt>
      <trkpt lat="46.11886" lon="3.39043">
        <ele>314.9</ele>
        <time>2025-02-05T19:37:48Z</time>
      </trkpt>
      <trkpt lat="46.11964" lon="3.39108">
        <ele>312.2</ele>
        <time>2025-02-05T19:38:09Z</time>
      </trkpt>
      <trkpt lat="46.12017" lon="3.3918">
        <ele>309.8</ele>
        <time>2025-02-05T19:38:26Z</time>
      </trkpt>
      <trkpt lat="46.12115" lon="3.39279">
        <ele>303.7</ele>
        <time>2025-02-05T19:38:54Z</time>
      </trkpt>
      <trkpt lat="46.12231" lon="3.39387">
        <ele>292.1</ele>
        <time>2025-02-05T19:39:26Z</time>
      </trkpt>
      <trkpt lat="46.12243" lon="3.39398">
        <ele>291</ele>
        <time>2025-02-05T19:39:29Z</time>
      </trkpt>
      <trkpt lat="46.12265" lon="3.39471">
        <ele>289.4</ele>
        <time>2025-02-05T19:39:42Z</time>
      </trkpt>
      <trkpt lat="46.12255" lon="3.39575">
        <ele>287.9</ele>
        <time>2025-02-05T19:39:59Z</time>
      </trkpt>
      <trkpt lat="46.12308" lon="3.39697">
        <ele>281.7</ele>
        <time>2025-02-05T19:40:22Z</time>
      </trkpt>
      <trkpt lat="46.12371" lon="3.3986">
        <ele>274.3</ele>
        <time>2025-02-05T19:40:53Z</time>
      </trkpt>
      <trkpt lat="46.12407" lon="3.39856">
        <ele>272.5</ele>
        <time>2025-02-05T19:41:01Z</time>
      </trkpt>
      <trkpt lat="46.12475" lon="3.39809">
        <ele>269.7</ele>
        <time>2025-02-05T19:41:19Z</time>
      </trkpt>
      <trkpt lat="46.12479" lon="3.39821">
        <ele>269.3</ele>
        <time>2025-02-05T19:41:21Z</time>
      </trkpt>
      <trkpt lat="46.12502" lon="3.39893">
        <ele>266.8</ele>
        <time>2025-02-05T19:41:34Z</time>
      </trkpt>
      <trkpt lat="46.12563" lon="3.39888">
        <ele>259.7</ele>
        <time>2025-02-05T19:41:48Z</time>
      </trkpt>
      <trkpt lat="46.12578" lon="3.39959">
        <ele>258.4</ele>
        <time>2025-02-05T19:42:00Z</time>
      </trkpt>
      <trkpt lat="46.12593" lon="3.40048">
        <ele>257.6</ele>
        <time>2025-02-05T19:42:15Z</time>
      </trkpt>
      <trkpt lat="46.12595" lon="3.4006">
        <ele>257.8</ele>
        <time>2025-02-05T19:42:17Z</time>
      </trkpt>
      <trkpt lat="46.12598" lon="3.40075">
        <ele>257.6</ele>
        <time>2025-02-05T19:42:19Z</time>
      </trkpt>
      <trkpt lat="46.12605" lon="3.4008">
        <ele>256.9</ele>
        <time>2025-02-05T19:42:21Z</time>
      </trkpt>
      <trkpt lat="46.12607" lon="3.4008">
        <ele>256.7</ele>
        <time>2025-02-05T19:42:22Z</time>
      </trkpt>
      <trkpt lat="46.12614" lon="3.40078">
        <ele>256.8</ele>
        <time>2025-02-05T19:42:23Z</time>
      </trkpt>
      <trkpt lat="46.12618" lon="3.4008">
        <ele>256.8</ele>
        <time>2025-02-05T19:42:24Z</time>
      </trkpt>
      <trkpt lat="46.12623" lon="3.4008">
        <ele>257.2</ele>
        <time>2025-02-05T19:42:25Z</time>
      </trkpt>
      <trkpt lat="46.12639" lon="3.40072">
        <ele>258.8</ele>
        <time>2025-02-05T19:42:29Z</time>
      </trkpt>
      <trkpt lat="46.12662" lon="3.4007">
        <ele>259.4</ele>
        <time>2025-02-05T19:42:35Z</time>
      </trkpt>
      <trkpt lat="46.12667" lon="3.40074">
        <ele>259.3</ele>
        <time>2025-02-05T19:42:36Z</time>
      </trkpt>
      <trkpt lat="46.12681" lon="3.4008">
        <ele>259.1</ele>
        <time>2025-02-05T19:42:39Z</time>
      </trkpt>
      <trkpt lat="46.127" lon="3.40095">
        <ele>258</ele>
        <time>2025-02-05T19:42:44Z</time>
      </trkpt>
      <trkpt lat="46.12821" lon="3.40166">
        <ele>253.5</ele>
        <time>2025-02-05T19:43:15Z</time>
      </trkpt>
      <trkpt lat="46.12838" lon="3.40172">
        <ele>252.8</ele>
        <time>2025-02-05T19:43:19Z</time>
      </trkpt>
      <trkpt lat="46.12859" lon="3.40179">
        <ele>252.6</ele>
        <time>2025-02-05T19:43:24Z</time>
      </trkpt>
      <trkpt lat="46.12968" lon="3.40206">
        <ele>252</ele>
        <time>2025-02-05T19:43:50Z</time>
      </trkpt>
      <trkpt lat="46.13012" lon="3.40213">
        <ele>252.6</ele>
        <time>2025-02-05T19:44:00Z</time>
      </trkpt>
      <trkpt lat="46.1302" lon="3.40216">
        <ele>252.8</ele>
        <time>2025-02-05T19:44:02Z</time>
      </trkpt>
      <trkpt lat="46.13038" lon="3.40229">
        <ele>252.8</ele>
        <time>2025-02-05T19:44:07Z</time>
      </trkpt>
      <trkpt lat="46.1305" lon="3.40225">
        <ele>253</ele>
        <time>2025-02-05T19:44:10Z</time>
      </trkpt>
      <trkpt lat="46.13073" lon="3.40243">
        <ele>253</ele>
      </trkpt>
      <trkpt lat="46.1307" lon="3.40269">
        <ele>252.7</ele>
      </trkpt>
      <trkpt lat="46.13269" lon="3.40471">
        <ele>252.7</ele>
        <time>2025-02-05T19:44:26Z</time>
      </trkpt>
      <trkpt lat="46.13306" lon="3.40484">
        <ele>253</ele>
      </trkpt>
      <trkpt lat="46.1341" lon="3.40466">
        <ele>253</ele>
      </trkpt>
      <trkpt lat="46.13435" lon="3.40464">
        <ele>252.3</ele>
      </trkpt>
      <trkpt lat="46.13456" lon="3.40468">
        <ele>252.4</ele>
      </trkpt>
      <trkpt lat="46.13476" lon="3.40484">
        <ele>252.5</ele>
      </trkpt>
      <trkpt lat="46.13491" lon="3.40505">
        <ele>252</ele>
      </trkpt>
      <trkpt lat="46.1351" lon="3.4058">
        <ele>252</ele>
      </trkpt>
      <trkpt lat="46.13516" lon="3.40625">
        <ele>252</ele>
      </trkpt>
      <trkpt lat="46.13557" lon="3.40766">
        <ele>252</ele>
      </trkpt>
      <trkpt lat="46.13603" lon="3.40883">
        <ele>251.7</ele>
      </trkpt>
      <trkpt lat="46.13613" lon="3.40909">
        <ele>252</ele>
      </trkpt>
      <trkpt lat="46.13619" lon="3.40938">
        <ele>251.5</ele>
      </trkpt>
      <trkpt lat="46.13621" lon="3.4096">
        <ele>251.4</ele>
      </trkpt>
      <trkpt lat="46.1362" lon="3.40986">
        <ele>251.3</ele>
      </trkpt>
      <trkpt lat="46.13604" lon="3.41093">
        <ele>252</ele>
      </trkpt>
      <trkpt lat="46.1361" lon="3.41113">
        <ele>252</ele>
      </trkpt>
      <trkpt lat="46.1365" lon="3.41099">
        <ele>252</ele>
      </trkpt>
      <trkpt lat="46.13677" lon="3.41085">
        <ele>252</ele>
      </trkpt>
      <trkpt lat="46.13729" lon="3.41062">
        <ele>252</ele>
      </trkpt>
      <trkpt lat="46.13798" lon="3.41039">
        <ele>252</ele>
      </trkpt>
      <trkpt lat="46.1383" lon="3.4103">
        <ele>252</ele>
      </trkpt>
      <trkpt lat="46.13899" lon="3.41004">
        <ele>252.9</ele>
      </trkpt>
      <trkpt lat="46.1391" lon="3.40997">
        <ele>253</ele>
      </trkpt>
      <trkpt lat="46.13944" lon="3.4099">
        <ele>252.4</ele>
      </trkpt>
      <trkpt lat="46.13948" lon="3.41002">
        <ele>252</ele>
      </trkpt>
      <trkpt lat="46.14045" lon="3.40968">
        <ele>252</ele>
      </trkpt>
      <trkpt lat="46.14061" lon="3.40937">
        <ele>252</ele>
        <time>2025-02-05T19:48:27Z</time>
      </trkpt>
    </trkseg>
  </trk>
</gpx>